<?xml version="1.0" encoding="UTF-8" standalone="no" ?>
<gpx xmlns="http://www.topografix.com/GPX/1/1" xmlns:xsi="http://www.w3.org/2001/XMLSchema-instance" xsi:schemaLocation="http://www.topografix.com/GPX/1/1 http://www.topografix.com/GPX/1/1/gpx.xsd" version="1.1" creator="VisuGPX - https://www.visugpx.com">
  <metadata>
    <name>Col du Rousset</name>
    <desc><![CDATA[Col du Rousset]]></desc>
  </metadata>
  <trk>
    <name><![CDATA[2011-08-05T07:52:52Z]]></name>
    <trkseg>
      <trkpt lat="44.79644" lon="5.38289">
        <ele>534.1496582</ele>
        <time>2011-08-05T07:52:52Z</time>
      </trkpt>
      <trkpt lat="44.79644" lon="5.38289">
        <ele>534.6303711</ele>
        <time>2011-08-05T07:52:54Z</time>
      </trkpt>
      <trkpt lat="44.79652" lon="5.38297">
        <ele>538.475708</ele>
        <time>2011-08-05T07:55:13Z</time>
      </trkpt>
      <trkpt lat="44.79661" lon="5.38299">
        <ele>539.9176025</ele>
        <time>2011-08-05T07:55:17Z</time>
      </trkpt>
      <trkpt lat="44.79673" lon="5.38303">
        <ele>541.3594971</ele>
        <time>2011-08-05T07:55:24Z</time>
      </trkpt>
      <trkpt lat="44.79694" lon="5.3831">
        <ele>541.3594971</ele>
        <time>2011-08-05T07:55:33Z</time>
      </trkpt>
      <trkpt lat="44.79716" lon="5.38318">
        <ele>542.3209229</ele>
        <time>2011-08-05T07:55:41Z</time>
      </trkpt>
      <trkpt lat="44.79733" lon="5.38329">
        <ele>542.8015137</ele>
        <time>2011-08-05T07:55:48Z</time>
      </trkpt>
      <trkpt lat="44.7975" lon="5.38333">
        <ele>543.7628174</ele>
        <time>2011-08-05T07:55:55Z</time>
      </trkpt>
      <trkpt lat="44.79774" lon="5.38328">
        <ele>545.6855469</ele>
        <time>2011-08-05T07:56:05Z</time>
      </trkpt>
      <trkpt lat="44.79789" lon="5.38332">
        <ele>546.6468506</ele>
        <time>2011-08-05T07:56:11Z</time>
      </trkpt>
      <trkpt lat="44.79816" lon="5.38344">
        <ele>548.0888672</ele>
        <time>2011-08-05T07:56:22Z</time>
      </trkpt>
      <trkpt lat="44.7984" lon="5.38356">
        <ele>549.5307617</ele>
        <time>2011-08-05T07:56:32Z</time>
      </trkpt>
      <trkpt lat="44.79857" lon="5.3837">
        <ele>550.4921875</ele>
        <time>2011-08-05T07:56:39Z</time>
      </trkpt>
      <trkpt lat="44.79871" lon="5.38383">
        <ele>549.5307617</ele>
        <time>2011-08-05T07:56:45Z</time>
      </trkpt>
      <trkpt lat="44.7989" lon="5.384">
        <ele>548.5693359</ele>
        <time>2011-08-05T07:56:53Z</time>
      </trkpt>
      <trkpt lat="44.79906" lon="5.38417">
        <ele>550.0114746</ele>
        <time>2011-08-05T07:57:00Z</time>
      </trkpt>
      <trkpt lat="44.79921" lon="5.38443">
        <ele>554.3374023</ele>
        <time>2011-08-05T07:57:08Z</time>
      </trkpt>
      <trkpt lat="44.79933" lon="5.38474">
        <ele>556.2600098</ele>
        <time>2011-08-05T07:57:16Z</time>
      </trkpt>
      <trkpt lat="44.79951" lon="5.38494">
        <ele>558.6633301</ele>
        <time>2011-08-05T07:57:24Z</time>
      </trkpt>
      <trkpt lat="44.79965" lon="5.38511">
        <ele>562.0280762</ele>
        <time>2011-08-05T07:57:31Z</time>
      </trkpt>
      <trkpt lat="44.79975" lon="5.38526">
        <ele>563.4699707</ele>
        <time>2011-08-05T07:57:36Z</time>
      </trkpt>
      <trkpt lat="44.79991" lon="5.38547">
        <ele>564.9118652</ele>
        <time>2011-08-05T07:57:44Z</time>
      </trkpt>
      <trkpt lat="44.80008" lon="5.38566">
        <ele>566.3537598</ele>
        <time>2011-08-05T07:57:52Z</time>
      </trkpt>
      <trkpt lat="44.80023" lon="5.38584">
        <ele>567.7956543</ele>
        <time>2011-08-05T07:57:59Z</time>
      </trkpt>
      <trkpt lat="44.80038" lon="5.386">
        <ele>569.237793</ele>
        <time>2011-08-05T07:58:06Z</time>
      </trkpt>
      <trkpt lat="44.80052" lon="5.38614">
        <ele>568.7570801</ele>
        <time>2011-08-05T07:58:12Z</time>
      </trkpt>
      <trkpt lat="44.80076" lon="5.38639">
        <ele>571.1604004</ele>
        <time>2011-08-05T07:58:22Z</time>
      </trkpt>
      <trkpt lat="44.80098" lon="5.38661">
        <ele>572.1218262</ele>
        <time>2011-08-05T07:58:31Z</time>
      </trkpt>
      <trkpt lat="44.80113" lon="5.38673">
        <ele>572.1218262</ele>
        <time>2011-08-05T07:58:37Z</time>
      </trkpt>
      <trkpt lat="44.80138" lon="5.3869">
        <ele>571.1604004</ele>
        <time>2011-08-05T07:58:47Z</time>
      </trkpt>
      <trkpt lat="44.80164" lon="5.387">
        <ele>570.6796875</ele>
        <time>2011-08-05T07:58:57Z</time>
      </trkpt>
      <trkpt lat="44.80193" lon="5.38697">
        <ele>571.1604004</ele>
        <time>2011-08-05T07:59:07Z</time>
      </trkpt>
      <trkpt lat="44.80219" lon="5.38693">
        <ele>572.1218262</ele>
        <time>2011-08-05T07:59:16Z</time>
      </trkpt>
      <trkpt lat="44.8023" lon="5.38706">
        <ele>572.1218262</ele>
        <time>2011-08-05T07:59:21Z</time>
      </trkpt>
      <trkpt lat="44.80229" lon="5.38722">
        <ele>572.6025391</ele>
        <time>2011-08-05T07:59:25Z</time>
      </trkpt>
      <trkpt lat="44.80218" lon="5.38752">
        <ele>573.5639648</ele>
        <time>2011-08-05T07:59:33Z</time>
      </trkpt>
      <trkpt lat="44.80213" lon="5.38773">
        <ele>573.5639648</ele>
        <time>2011-08-05T07:59:39Z</time>
      </trkpt>
      <trkpt lat="44.80214" lon="5.38806">
        <ele>574.0444336</ele>
        <time>2011-08-05T07:59:47Z</time>
      </trkpt>
      <trkpt lat="44.80223" lon="5.38837">
        <ele>575.967041</ele>
        <time>2011-08-05T07:59:55Z</time>
      </trkpt>
      <trkpt lat="44.80238" lon="5.38862">
        <ele>578.3703613</ele>
        <time>2011-08-05T08:00:03Z</time>
      </trkpt>
      <trkpt lat="44.80256" lon="5.38894">
        <ele>581.2543945</ele>
        <time>2011-08-05T08:00:13Z</time>
      </trkpt>
      <trkpt lat="44.80268" lon="5.38928">
        <ele>584.1381836</ele>
        <time>2011-08-05T08:00:22Z</time>
      </trkpt>
      <trkpt lat="44.80285" lon="5.38957">
        <ele>586.060791</ele>
        <time>2011-08-05T08:00:31Z</time>
      </trkpt>
      <trkpt lat="44.80307" lon="5.38976">
        <ele>587.0219727</ele>
        <time>2011-08-05T08:00:40Z</time>
      </trkpt>
      <trkpt lat="44.80318" lon="5.38996">
        <ele>587.9833984</ele>
        <time>2011-08-05T08:00:46Z</time>
      </trkpt>
      <trkpt lat="44.80327" lon="5.39025">
        <ele>589.90625</ele>
        <time>2011-08-05T08:00:54Z</time>
      </trkpt>
      <trkpt lat="44.80339" lon="5.39044">
        <ele>591.8288574</ele>
        <time>2011-08-05T08:01:00Z</time>
      </trkpt>
      <trkpt lat="44.80363" lon="5.39076">
        <ele>594.2321777</ele>
        <time>2011-08-05T08:01:11Z</time>
      </trkpt>
      <trkpt lat="44.80386" lon="5.39107">
        <ele>597.1159668</ele>
        <time>2011-08-05T08:01:22Z</time>
      </trkpt>
      <trkpt lat="44.80405" lon="5.39118">
        <ele>596.1547852</ele>
        <time>2011-08-05T08:01:30Z</time>
      </trkpt>
      <trkpt lat="44.80428" lon="5.39121">
        <ele>596.1547852</ele>
        <time>2011-08-05T08:01:38Z</time>
      </trkpt>
      <trkpt lat="44.80453" lon="5.39121">
        <ele>596.1547852</ele>
        <time>2011-08-05T08:01:47Z</time>
      </trkpt>
      <trkpt lat="44.80472" lon="5.39121">
        <ele>595.6740723</ele>
        <time>2011-08-05T08:01:54Z</time>
      </trkpt>
      <trkpt lat="44.80499" lon="5.39119">
        <ele>597.5966797</ele>
        <time>2011-08-05T08:02:03Z</time>
      </trkpt>
      <trkpt lat="44.80526" lon="5.3911">
        <ele>600.4807129</ele>
        <time>2011-08-05T08:02:12Z</time>
      </trkpt>
      <trkpt lat="44.80551" lon="5.39096">
        <ele>601.9226074</ele>
        <time>2011-08-05T08:02:21Z</time>
      </trkpt>
      <trkpt lat="44.80574" lon="5.39081">
        <ele>603.8452148</ele>
        <time>2011-08-05T08:02:29Z</time>
      </trkpt>
      <trkpt lat="44.80606" lon="5.39064">
        <ele>608.1713867</ele>
        <time>2011-08-05T08:02:40Z</time>
      </trkpt>
      <trkpt lat="44.80625" lon="5.39055">
        <ele>609.6132813</ele>
        <time>2011-08-05T08:02:47Z</time>
      </trkpt>
      <trkpt lat="44.80649" lon="5.39051">
        <ele>611.5358887</ele>
        <time>2011-08-05T08:02:55Z</time>
      </trkpt>
      <trkpt lat="44.80655" lon="5.39065">
        <ele>612.0166016</ele>
        <time>2011-08-05T08:02:59Z</time>
      </trkpt>
      <trkpt lat="44.80652" lon="5.39091">
        <ele>612.4970703</ele>
        <time>2011-08-05T08:03:05Z</time>
      </trkpt>
      <trkpt lat="44.8064" lon="5.39122">
        <ele>612.4970703</ele>
        <time>2011-08-05T08:03:13Z</time>
      </trkpt>
      <trkpt lat="44.80638" lon="5.39147">
        <ele>616.822998</ele>
        <time>2011-08-05T08:03:19Z</time>
      </trkpt>
      <trkpt lat="44.80645" lon="5.3918">
        <ele>620.668457</ele>
        <time>2011-08-05T08:03:27Z</time>
      </trkpt>
      <trkpt lat="44.80652" lon="5.39221">
        <ele>624.032959</ele>
        <time>2011-08-05T08:03:37Z</time>
      </trkpt>
      <trkpt lat="44.80665" lon="5.39253">
        <ele>625.9555664</ele>
        <time>2011-08-05T08:03:46Z</time>
      </trkpt>
      <trkpt lat="44.80677" lon="5.39283">
        <ele>628.3588867</ele>
        <time>2011-08-05T08:03:54Z</time>
      </trkpt>
      <trkpt lat="44.80695" lon="5.3931">
        <ele>630.762207</ele>
        <time>2011-08-05T08:04:03Z</time>
      </trkpt>
      <trkpt lat="44.80714" lon="5.39315">
        <ele>631.7233887</ele>
        <time>2011-08-05T08:04:10Z</time>
      </trkpt>
      <trkpt lat="44.80737" lon="5.39315">
        <ele>631.2429199</ele>
        <time>2011-08-05T08:04:18Z</time>
      </trkpt>
      <trkpt lat="44.80762" lon="5.39322">
        <ele>631.2429199</ele>
        <time>2011-08-05T08:04:27Z</time>
      </trkpt>
      <trkpt lat="44.80784" lon="5.39337">
        <ele>632.2041016</ele>
        <time>2011-08-05T08:04:35Z</time>
      </trkpt>
      <trkpt lat="44.80809" lon="5.39357">
        <ele>633.6459961</ele>
        <time>2011-08-05T08:04:44Z</time>
      </trkpt>
      <trkpt lat="44.8083" lon="5.39363">
        <ele>634.126709</ele>
        <time>2011-08-05T08:04:51Z</time>
      </trkpt>
      <trkpt lat="44.80861" lon="5.39362">
        <ele>635.5686035</ele>
        <time>2011-08-05T08:05:01Z</time>
      </trkpt>
      <trkpt lat="44.8089" lon="5.39367">
        <ele>637.4914551</ele>
        <time>2011-08-05T08:05:10Z</time>
      </trkpt>
      <trkpt lat="44.80908" lon="5.39373">
        <ele>638.4528809</ele>
        <time>2011-08-05T08:05:16Z</time>
      </trkpt>
      <trkpt lat="44.8094" lon="5.39384">
        <ele>640.855957</ele>
        <time>2011-08-05T08:05:26Z</time>
      </trkpt>
      <trkpt lat="44.80964" lon="5.39389">
        <ele>642.7788086</ele>
        <time>2011-08-05T08:05:34Z</time>
      </trkpt>
      <trkpt lat="44.81002" lon="5.39391">
        <ele>644.7011719</ele>
        <time>2011-08-05T08:05:46Z</time>
      </trkpt>
      <trkpt lat="44.81037" lon="5.39389">
        <ele>646.1433105</ele>
        <time>2011-08-05T08:05:57Z</time>
      </trkpt>
      <trkpt lat="44.81065" lon="5.39394">
        <ele>647.5852051</ele>
        <time>2011-08-05T08:06:06Z</time>
      </trkpt>
      <trkpt lat="44.81101" lon="5.39412">
        <ele>649.9885254</ele>
        <time>2011-08-05T08:06:18Z</time>
      </trkpt>
      <trkpt lat="44.81136" lon="5.39433">
        <ele>652.3918457</ele>
        <time>2011-08-05T08:06:30Z</time>
      </trkpt>
      <trkpt lat="44.81166" lon="5.39447">
        <ele>653.8339844</ele>
        <time>2011-08-05T08:06:40Z</time>
      </trkpt>
      <trkpt lat="44.8119" lon="5.3945">
        <ele>654.795166</ele>
        <time>2011-08-05T08:06:48Z</time>
      </trkpt>
      <trkpt lat="44.8121" lon="5.3944">
        <ele>655.2758789</ele>
        <time>2011-08-05T08:06:55Z</time>
      </trkpt>
      <trkpt lat="44.81222" lon="5.39423">
        <ele>655.7565918</ele>
        <time>2011-08-05T08:07:01Z</time>
      </trkpt>
      <trkpt lat="44.81229" lon="5.39402">
        <ele>655.7565918</ele>
        <time>2011-08-05T08:07:07Z</time>
      </trkpt>
      <trkpt lat="44.81239" lon="5.39368">
        <ele>657.6791992</ele>
        <time>2011-08-05T08:07:15Z</time>
      </trkpt>
      <trkpt lat="44.81246" lon="5.39347">
        <ele>660.0822754</ele>
        <time>2011-08-05T08:07:20Z</time>
      </trkpt>
      <trkpt lat="44.81264" lon="5.39318">
        <ele>664.888916</ele>
        <time>2011-08-05T08:07:28Z</time>
      </trkpt>
      <trkpt lat="44.81286" lon="5.39286">
        <ele>666.8115234</ele>
        <time>2011-08-05T08:07:38Z</time>
      </trkpt>
      <trkpt lat="44.81307" lon="5.3926">
        <ele>668.734375</ele>
        <time>2011-08-05T08:07:47Z</time>
      </trkpt>
      <trkpt lat="44.81328" lon="5.39235">
        <ele>669.6958008</ele>
        <time>2011-08-05T08:07:56Z</time>
      </trkpt>
      <trkpt lat="44.81342" lon="5.39229">
        <ele>669.6958008</ele>
        <time>2011-08-05T08:08:01Z</time>
      </trkpt>
      <trkpt lat="44.81356" lon="5.39238">
        <ele>671.6181641</ele>
        <time>2011-08-05T08:08:06Z</time>
      </trkpt>
      <trkpt lat="44.81366" lon="5.39259">
        <ele>672.5795898</ele>
        <time>2011-08-05T08:08:12Z</time>
      </trkpt>
      <trkpt lat="44.81379" lon="5.39276">
        <ele>674.5021973</ele>
        <time>2011-08-05T08:08:18Z</time>
      </trkpt>
      <trkpt lat="44.81398" lon="5.39281">
        <ele>675.9440918</ele>
        <time>2011-08-05T08:08:24Z</time>
      </trkpt>
      <trkpt lat="44.81431" lon="5.39274">
        <ele>677.8666992</ele>
        <time>2011-08-05T08:08:35Z</time>
      </trkpt>
      <trkpt lat="44.81465" lon="5.39268">
        <ele>678.3474121</ele>
        <time>2011-08-05T08:08:46Z</time>
      </trkpt>
      <trkpt lat="44.81496" lon="5.3926">
        <ele>679.3085938</ele>
        <time>2011-08-05T08:08:56Z</time>
      </trkpt>
      <trkpt lat="44.81523" lon="5.39252">
        <ele>679.7893066</ele>
        <time>2011-08-05T08:09:05Z</time>
      </trkpt>
      <trkpt lat="44.8155" lon="5.39246">
        <ele>680.2700195</ele>
        <time>2011-08-05T08:09:15Z</time>
      </trkpt>
      <trkpt lat="44.81569" lon="5.39243">
        <ele>680.7507324</ele>
        <time>2011-08-05T08:09:22Z</time>
      </trkpt>
      <trkpt lat="44.81601" lon="5.39242">
        <ele>682.6733398</ele>
        <time>2011-08-05T08:09:33Z</time>
      </trkpt>
      <trkpt lat="44.81629" lon="5.39244">
        <ele>684.5961914</ele>
        <time>2011-08-05T08:09:42Z</time>
      </trkpt>
      <trkpt lat="44.81658" lon="5.3925">
        <ele>686.9992676</ele>
        <time>2011-08-05T08:09:51Z</time>
      </trkpt>
      <trkpt lat="44.81689" lon="5.39257">
        <ele>688.9221191</ele>
        <time>2011-08-05T08:10:01Z</time>
      </trkpt>
      <trkpt lat="44.81702" lon="5.39259">
        <ele>688.9221191</ele>
        <time>2011-08-05T08:10:05Z</time>
      </trkpt>
      <trkpt lat="44.81733" lon="5.39266">
        <ele>690.8444824</ele>
        <time>2011-08-05T08:10:15Z</time>
      </trkpt>
      <trkpt lat="44.81767" lon="5.39271">
        <ele>692.767334</ele>
        <time>2011-08-05T08:10:26Z</time>
      </trkpt>
      <trkpt lat="44.81791" lon="5.39275">
        <ele>694.2092285</ele>
        <time>2011-08-05T08:10:34Z</time>
      </trkpt>
      <trkpt lat="44.81826" lon="5.39282">
        <ele>696.1318359</ele>
        <time>2011-08-05T08:10:45Z</time>
      </trkpt>
      <trkpt lat="44.81857" lon="5.39282">
        <ele>697.5737305</ele>
        <time>2011-08-05T08:10:55Z</time>
      </trkpt>
      <trkpt lat="44.81878" lon="5.39275">
        <ele>699.015625</ele>
        <time>2011-08-05T08:11:02Z</time>
      </trkpt>
      <trkpt lat="44.81897" lon="5.39262">
        <ele>699.4963379</ele>
        <time>2011-08-05T08:11:09Z</time>
      </trkpt>
      <trkpt lat="44.81922" lon="5.39241">
        <ele>703.8225098</ele>
        <time>2011-08-05T08:11:18Z</time>
      </trkpt>
      <trkpt lat="44.81947" lon="5.39216">
        <ele>711.0322266</ele>
        <time>2011-08-05T08:11:27Z</time>
      </trkpt>
      <trkpt lat="44.81965" lon="5.392">
        <ele>711.0322266</ele>
        <time>2011-08-05T08:11:34Z</time>
      </trkpt>
      <trkpt lat="44.8198" lon="5.39203">
        <ele>711.0322266</ele>
        <time>2011-08-05T08:11:39Z</time>
      </trkpt>
      <trkpt lat="44.81992" lon="5.39224">
        <ele>711.5129395</ele>
        <time>2011-08-05T08:11:45Z</time>
      </trkpt>
      <trkpt lat="44.82004" lon="5.3925">
        <ele>712.954834</ele>
        <time>2011-08-05T08:11:52Z</time>
      </trkpt>
      <trkpt lat="44.8202" lon="5.39265">
        <ele>714.3967285</ele>
        <time>2011-08-05T08:11:58Z</time>
      </trkpt>
      <trkpt lat="44.82036" lon="5.39278">
        <ele>714.8774414</ele>
        <time>2011-08-05T08:12:04Z</time>
      </trkpt>
      <trkpt lat="44.82056" lon="5.39296">
        <ele>715.8388672</ele>
        <time>2011-08-05T08:12:12Z</time>
      </trkpt>
      <trkpt lat="44.82072" lon="5.39329">
        <ele>717.2810059</ele>
        <time>2011-08-05T08:12:21Z</time>
      </trkpt>
      <trkpt lat="44.82082" lon="5.39376">
        <ele>718.7229004</ele>
        <time>2011-08-05T08:12:33Z</time>
      </trkpt>
      <trkpt lat="44.82084" lon="5.39382">
        <ele>719.2036133</ele>
        <time>2011-08-05T08:12:35Z</time>
      </trkpt>
      <trkpt lat="44.8208" lon="5.39399">
        <ele>720.1647949</ele>
        <time>2011-08-05T08:12:40Z</time>
      </trkpt>
      <trkpt lat="44.82069" lon="5.39427">
        <ele>721.6066895</ele>
        <time>2011-08-05T08:12:48Z</time>
      </trkpt>
      <trkpt lat="44.82054" lon="5.39442">
        <ele>723.0488281</ele>
        <time>2011-08-05T08:12:55Z</time>
      </trkpt>
      <trkpt lat="44.82036" lon="5.39458">
        <ele>724.4907227</ele>
        <time>2011-08-05T08:13:03Z</time>
      </trkpt>
      <trkpt lat="44.82022" lon="5.39478">
        <ele>725.9326172</ele>
        <time>2011-08-05T08:13:11Z</time>
      </trkpt>
      <trkpt lat="44.82016" lon="5.39498">
        <ele>726.894043</ele>
        <time>2011-08-05T08:13:17Z</time>
      </trkpt>
      <trkpt lat="44.82016" lon="5.3952">
        <ele>728.3359375</ele>
        <time>2011-08-05T08:13:23Z</time>
      </trkpt>
      <trkpt lat="44.82025" lon="5.39537">
        <ele>729.2971191</ele>
        <time>2011-08-05T08:13:29Z</time>
      </trkpt>
      <trkpt lat="44.82049" lon="5.39556">
        <ele>730.7392578</ele>
        <time>2011-08-05T08:13:39Z</time>
      </trkpt>
      <trkpt lat="44.82076" lon="5.39565">
        <ele>732.6621094</ele>
        <time>2011-08-05T08:13:49Z</time>
      </trkpt>
      <trkpt lat="44.82098" lon="5.39562">
        <ele>733.623291</ele>
        <time>2011-08-05T08:13:57Z</time>
      </trkpt>
      <trkpt lat="44.82121" lon="5.3955">
        <ele>734.1040039</ele>
        <time>2011-08-05T08:14:06Z</time>
      </trkpt>
      <trkpt lat="44.82148" lon="5.39531">
        <ele>735.0654297</ele>
        <time>2011-08-05T08:14:17Z</time>
      </trkpt>
      <trkpt lat="44.8217" lon="5.39518">
        <ele>738.4299316</ele>
        <time>2011-08-05T08:14:26Z</time>
      </trkpt>
      <trkpt lat="44.82194" lon="5.39507">
        <ele>739.8718262</ele>
        <time>2011-08-05T08:14:35Z</time>
      </trkpt>
      <trkpt lat="44.82219" lon="5.39501">
        <ele>741.3137207</ele>
        <time>2011-08-05T08:14:44Z</time>
      </trkpt>
      <trkpt lat="44.82247" lon="5.39505">
        <ele>744.1977539</ele>
        <time>2011-08-05T08:14:54Z</time>
      </trkpt>
      <trkpt lat="44.82273" lon="5.39509">
        <ele>746.6010742</ele>
        <time>2011-08-05T08:15:03Z</time>
      </trkpt>
      <trkpt lat="44.82298" lon="5.39518">
        <ele>749.0043945</ele>
        <time>2011-08-05T08:15:12Z</time>
      </trkpt>
      <trkpt lat="44.82323" lon="5.39527">
        <ele>751.4077148</ele>
        <time>2011-08-05T08:15:21Z</time>
      </trkpt>
      <trkpt lat="44.8235" lon="5.39536">
        <ele>752.8496094</ele>
        <time>2011-08-05T08:15:30Z</time>
      </trkpt>
      <trkpt lat="44.8238" lon="5.39543">
        <ele>752.8496094</ele>
        <time>2011-08-05T08:15:40Z</time>
      </trkpt>
      <trkpt lat="44.82403" lon="5.39547">
        <ele>752.8496094</ele>
        <time>2011-08-05T08:15:48Z</time>
      </trkpt>
      <trkpt lat="44.82405" lon="5.3953">
        <ele>751.8884277</ele>
        <time>2011-08-05T08:15:53Z</time>
      </trkpt>
      <trkpt lat="44.82394" lon="5.39522">
        <ele>750.927002</ele>
        <time>2011-08-05T08:15:57Z</time>
      </trkpt>
      <trkpt lat="44.82391" lon="5.39521">
        <ele>750.927002</ele>
        <time>2011-08-05T08:15:58Z</time>
      </trkpt>
      <trkpt lat="44.82361" lon="5.39516">
        <ele>750.927002</ele>
        <time>2011-08-05T08:16:07Z</time>
      </trkpt>
      <trkpt lat="44.82329" lon="5.39501">
        <ele>751.8884277</ele>
        <time>2011-08-05T08:16:17Z</time>
      </trkpt>
      <trkpt lat="44.82298" lon="5.39482">
        <ele>752.8496094</ele>
        <time>2011-08-05T08:16:27Z</time>
      </trkpt>
      <trkpt lat="44.82268" lon="5.3946">
        <ele>753.8110352</ele>
        <time>2011-08-05T08:16:37Z</time>
      </trkpt>
      <trkpt lat="44.82243" lon="5.39437">
        <ele>754.7722168</ele>
        <time>2011-08-05T08:16:46Z</time>
      </trkpt>
      <trkpt lat="44.82217" lon="5.39407">
        <ele>756.6948242</ele>
        <time>2011-08-05T08:16:56Z</time>
      </trkpt>
      <trkpt lat="44.82195" lon="5.39372">
        <ele>760.0593262</ele>
        <time>2011-08-05T08:17:06Z</time>
      </trkpt>
      <trkpt lat="44.82187" lon="5.39342">
        <ele>762.9433594</ele>
        <time>2011-08-05T08:17:13Z</time>
      </trkpt>
      <trkpt lat="44.82178" lon="5.39292">
        <ele>767.2695313</ele>
        <time>2011-08-05T08:17:24Z</time>
      </trkpt>
      <trkpt lat="44.82167" lon="5.39254">
        <ele>769.6728516</ele>
        <time>2011-08-05T08:17:33Z</time>
      </trkpt>
      <trkpt lat="44.82154" lon="5.39213">
        <ele>771.5952148</ele>
        <time>2011-08-05T08:17:43Z</time>
      </trkpt>
      <trkpt lat="44.82147" lon="5.39197">
        <ele>773.0373535</ele>
        <time>2011-08-05T08:17:47Z</time>
      </trkpt>
      <trkpt lat="44.82154" lon="5.3919">
        <ele>773.9985352</ele>
        <time>2011-08-05T08:17:51Z</time>
      </trkpt>
      <trkpt lat="44.82156" lon="5.39194">
        <ele>773.9985352</ele>
        <time>2011-08-05T08:17:52Z</time>
      </trkpt>
      <trkpt lat="44.82175" lon="5.39252">
        <ele>776.4018555</ele>
        <time>2011-08-05T08:18:05Z</time>
      </trkpt>
      <trkpt lat="44.8219" lon="5.39286">
        <ele>778.3244629</ele>
        <time>2011-08-05T08:18:14Z</time>
      </trkpt>
      <trkpt lat="44.82199" lon="5.39307">
        <ele>779.7663574</ele>
        <time>2011-08-05T08:18:20Z</time>
      </trkpt>
      <trkpt lat="44.82216" lon="5.39342">
        <ele>781.689209</ele>
        <time>2011-08-05T08:18:30Z</time>
      </trkpt>
      <trkpt lat="44.8224" lon="5.39364">
        <ele>783.6118164</ele>
        <time>2011-08-05T08:18:39Z</time>
      </trkpt>
      <trkpt lat="44.82266" lon="5.39388">
        <ele>784.5732422</ele>
        <time>2011-08-05T08:18:49Z</time>
      </trkpt>
      <trkpt lat="44.82288" lon="5.39413">
        <ele>786.4958496</ele>
        <time>2011-08-05T08:18:58Z</time>
      </trkpt>
      <trkpt lat="44.8231" lon="5.39429">
        <ele>787.9377441</ele>
        <time>2011-08-05T08:19:06Z</time>
      </trkpt>
      <trkpt lat="44.82337" lon="5.3944">
        <ele>790.3410645</ele>
        <time>2011-08-05T08:19:15Z</time>
      </trkpt>
      <trkpt lat="44.82364" lon="5.39446">
        <ele>792.2636719</ele>
        <time>2011-08-05T08:19:24Z</time>
      </trkpt>
      <trkpt lat="44.82391" lon="5.39451">
        <ele>794.666748</ele>
        <time>2011-08-05T08:19:33Z</time>
      </trkpt>
      <trkpt lat="44.82419" lon="5.3946">
        <ele>796.5898438</ele>
        <time>2011-08-05T08:19:42Z</time>
      </trkpt>
      <trkpt lat="44.8244" lon="5.39478">
        <ele>798.0317383</ele>
        <time>2011-08-05T08:19:50Z</time>
      </trkpt>
      <trkpt lat="44.82466" lon="5.39494">
        <ele>799.9543457</ele>
        <time>2011-08-05T08:19:59Z</time>
      </trkpt>
      <trkpt lat="44.82496" lon="5.39505">
        <ele>801.8769531</ele>
        <time>2011-08-05T08:20:09Z</time>
      </trkpt>
      <trkpt lat="44.82527" lon="5.39508">
        <ele>803.7995605</ele>
        <time>2011-08-05T08:20:19Z</time>
      </trkpt>
      <trkpt lat="44.82549" lon="5.39505">
        <ele>804.2802734</ele>
        <time>2011-08-05T08:20:26Z</time>
      </trkpt>
      <trkpt lat="44.82574" lon="5.39505">
        <ele>805.2414551</ele>
        <time>2011-08-05T08:20:34Z</time>
      </trkpt>
      <trkpt lat="44.82595" lon="5.39511">
        <ele>806.6833496</ele>
        <time>2011-08-05T08:20:41Z</time>
      </trkpt>
      <trkpt lat="44.82629" lon="5.39516">
        <ele>807.6447754</ele>
        <time>2011-08-05T08:20:52Z</time>
      </trkpt>
      <trkpt lat="44.82664" lon="5.39521">
        <ele>809.5673828</ele>
        <time>2011-08-05T08:21:03Z</time>
      </trkpt>
      <trkpt lat="44.82691" lon="5.3953">
        <ele>811.4899902</ele>
        <time>2011-08-05T08:21:12Z</time>
      </trkpt>
      <trkpt lat="44.82718" lon="5.39552">
        <ele>814.3740234</ele>
        <time>2011-08-05T08:21:22Z</time>
      </trkpt>
      <trkpt lat="44.82725" lon="5.39571">
        <ele>815.3354492</ele>
        <time>2011-08-05T08:21:27Z</time>
      </trkpt>
      <trkpt lat="44.82719" lon="5.39592">
        <ele>815.8161621</ele>
        <time>2011-08-05T08:21:32Z</time>
      </trkpt>
      <trkpt lat="44.82704" lon="5.39609">
        <ele>818.6999512</ele>
        <time>2011-08-05T08:21:38Z</time>
      </trkpt>
      <trkpt lat="44.82678" lon="5.39627">
        <ele>821.5837402</ele>
        <time>2011-08-05T08:21:47Z</time>
      </trkpt>
      <trkpt lat="44.82656" lon="5.39648">
        <ele>821.5837402</ele>
        <time>2011-08-05T08:21:55Z</time>
      </trkpt>
      <trkpt lat="44.82635" lon="5.39677">
        <ele>822.545166</ele>
        <time>2011-08-05T08:22:04Z</time>
      </trkpt>
      <trkpt lat="44.82615" lon="5.39713">
        <ele>823.5065918</ele>
        <time>2011-08-05T08:22:14Z</time>
      </trkpt>
      <trkpt lat="44.82596" lon="5.39738">
        <ele>823.9870605</ele>
        <time>2011-08-05T08:22:22Z</time>
      </trkpt>
      <trkpt lat="44.82575" lon="5.39749">
        <ele>824.4677734</ele>
        <time>2011-08-05T08:22:29Z</time>
      </trkpt>
      <trkpt lat="44.82555" lon="5.39763">
        <ele>824.9484863</ele>
        <time>2011-08-05T08:22:36Z</time>
      </trkpt>
      <trkpt lat="44.82552" lon="5.3978">
        <ele>825.4289551</ele>
        <time>2011-08-05T08:22:40Z</time>
      </trkpt>
      <trkpt lat="44.82563" lon="5.3979">
        <ele>825.909668</ele>
        <time>2011-08-05T08:22:44Z</time>
      </trkpt>
      <trkpt lat="44.82576" lon="5.39785">
        <ele>825.909668</ele>
        <time>2011-08-05T08:22:48Z</time>
      </trkpt>
      <trkpt lat="44.82593" lon="5.39766">
        <ele>825.909668</ele>
        <time>2011-08-05T08:22:54Z</time>
      </trkpt>
      <trkpt lat="44.82614" lon="5.3975">
        <ele>826.8710938</ele>
        <time>2011-08-05T08:23:01Z</time>
      </trkpt>
      <trkpt lat="44.82635" lon="5.39725">
        <ele>827.8322754</ele>
        <time>2011-08-05T08:23:09Z</time>
      </trkpt>
      <trkpt lat="44.82652" lon="5.39702">
        <ele>828.7939453</ele>
        <time>2011-08-05T08:23:16Z</time>
      </trkpt>
      <trkpt lat="44.82677" lon="5.39682">
        <ele>830.7165527</ele>
        <time>2011-08-05T08:23:25Z</time>
      </trkpt>
      <trkpt lat="44.82708" lon="5.39659">
        <ele>834.0810547</ele>
        <time>2011-08-05T08:23:36Z</time>
      </trkpt>
      <trkpt lat="44.82721" lon="5.39648">
        <ele>836.484375</ele>
        <time>2011-08-05T08:23:42Z</time>
      </trkpt>
      <trkpt lat="44.82742" lon="5.39629">
        <ele>839.848877</ele>
        <time>2011-08-05T08:23:51Z</time>
      </trkpt>
      <trkpt lat="44.82762" lon="5.39609">
        <ele>840.3295898</ele>
        <time>2011-08-05T08:23:59Z</time>
      </trkpt>
      <trkpt lat="44.82781" lon="5.39591">
        <ele>843.6940918</ele>
        <time>2011-08-05T08:24:06Z</time>
      </trkpt>
      <trkpt lat="44.82806" lon="5.39574">
        <ele>845.1362305</ele>
        <time>2011-08-05T08:24:15Z</time>
      </trkpt>
      <trkpt lat="44.82816" lon="5.39556">
        <ele>847.5395508</ele>
        <time>2011-08-05T08:24:20Z</time>
      </trkpt>
      <trkpt lat="44.82818" lon="5.3953">
        <ele>850.9040527</ele>
        <time>2011-08-05T08:24:26Z</time>
      </trkpt>
      <trkpt lat="44.82809" lon="5.39512">
        <ele>852.8266602</ele>
        <time>2011-08-05T08:24:31Z</time>
      </trkpt>
      <trkpt lat="44.82785" lon="5.39497">
        <ele>852.8266602</ele>
        <time>2011-08-05T08:24:39Z</time>
      </trkpt>
      <trkpt lat="44.82757" lon="5.39485">
        <ele>853.7880859</ele>
        <time>2011-08-05T08:24:48Z</time>
      </trkpt>
      <trkpt lat="44.82728" lon="5.39475">
        <ele>853.7880859</ele>
        <time>2011-08-05T08:24:57Z</time>
      </trkpt>
      <trkpt lat="44.82702" lon="5.3947">
        <ele>854.7492676</ele>
        <time>2011-08-05T08:25:05Z</time>
      </trkpt>
      <trkpt lat="44.82681" lon="5.39457">
        <ele>855.2299805</ele>
        <time>2011-08-05T08:25:12Z</time>
      </trkpt>
      <trkpt lat="44.82659" lon="5.39446">
        <ele>855.7106934</ele>
        <time>2011-08-05T08:25:19Z</time>
      </trkpt>
      <trkpt lat="44.82623" lon="5.39444">
        <ele>856.671875</ele>
        <time>2011-08-05T08:25:30Z</time>
      </trkpt>
      <trkpt lat="44.82594" lon="5.39436">
        <ele>858.1140137</ele>
        <time>2011-08-05T08:25:39Z</time>
      </trkpt>
      <trkpt lat="44.82573" lon="5.39421">
        <ele>859.0751953</ele>
        <time>2011-08-05T08:25:46Z</time>
      </trkpt>
      <trkpt lat="44.82548" lon="5.39404">
        <ele>860.9980469</ele>
        <time>2011-08-05T08:25:55Z</time>
      </trkpt>
      <trkpt lat="44.82519" lon="5.39382">
        <ele>862.4399414</ele>
        <time>2011-08-05T08:26:05Z</time>
      </trkpt>
      <trkpt lat="44.82495" lon="5.39352">
        <ele>862.4399414</ele>
        <time>2011-08-05T08:26:15Z</time>
      </trkpt>
      <trkpt lat="44.82472" lon="5.39319">
        <ele>863.4013672</ele>
        <time>2011-08-05T08:26:25Z</time>
      </trkpt>
      <trkpt lat="44.82454" lon="5.39299">
        <ele>864.3625488</ele>
        <time>2011-08-05T08:26:32Z</time>
      </trkpt>
      <trkpt lat="44.82422" lon="5.39277">
        <ele>865.8046875</ele>
        <time>2011-08-05T08:26:43Z</time>
      </trkpt>
      <trkpt lat="44.82404" lon="5.39258">
        <ele>867.246582</ele>
        <time>2011-08-05T08:26:50Z</time>
      </trkpt>
      <trkpt lat="44.82387" lon="5.3923">
        <ele>869.1691895</ele>
        <time>2011-08-05T08:26:58Z</time>
      </trkpt>
      <trkpt lat="44.82373" lon="5.3919">
        <ele>869.1691895</ele>
        <time>2011-08-05T08:27:08Z</time>
      </trkpt>
      <trkpt lat="44.82357" lon="5.39158">
        <ele>871.0917969</ele>
        <time>2011-08-05T08:27:17Z</time>
      </trkpt>
      <trkpt lat="44.82333" lon="5.3912">
        <ele>872.5336914</ele>
        <time>2011-08-05T08:27:28Z</time>
      </trkpt>
      <trkpt lat="44.82316" lon="5.39088">
        <ele>873.4951172</ele>
        <time>2011-08-05T08:27:37Z</time>
      </trkpt>
      <trkpt lat="44.82303" lon="5.39046">
        <ele>874.9370117</ele>
        <time>2011-08-05T08:27:47Z</time>
      </trkpt>
      <trkpt lat="44.823" lon="5.39011">
        <ele>876.3791504</ele>
        <time>2011-08-05T08:27:55Z</time>
      </trkpt>
      <trkpt lat="44.82306" lon="5.38982">
        <ele>879.2629395</ele>
        <time>2011-08-05T08:28:02Z</time>
      </trkpt>
      <trkpt lat="44.82311" lon="5.38965">
        <ele>881.6662598</ele>
        <time>2011-08-05T08:28:08Z</time>
      </trkpt>
      <trkpt lat="44.82312" lon="5.38963">
        <ele>882.1469727</ele>
        <time>2011-08-05T08:28:09Z</time>
      </trkpt>
      <trkpt lat="44.8232" lon="5.3894">
        <ele>884.0695801</ele>
        <time>2011-08-05T08:28:17Z</time>
      </trkpt>
      <trkpt lat="44.82326" lon="5.38916">
        <ele>884.550293</ele>
        <time>2011-08-05T08:28:25Z</time>
      </trkpt>
      <trkpt lat="44.82328" lon="5.38887">
        <ele>885.9921875</ele>
        <time>2011-08-05T08:28:32Z</time>
      </trkpt>
      <trkpt lat="44.82323" lon="5.38855">
        <ele>887.434082</ele>
        <time>2011-08-05T08:28:39Z</time>
      </trkpt>
      <trkpt lat="44.82311" lon="5.38817">
        <ele>888.3955078</ele>
        <time>2011-08-05T08:28:48Z</time>
      </trkpt>
      <trkpt lat="44.8231" lon="5.38808">
        <ele>888.8762207</ele>
        <time>2011-08-05T08:28:50Z</time>
      </trkpt>
      <trkpt lat="44.8232" lon="5.38801">
        <ele>889.3566895</ele>
        <time>2011-08-05T08:28:54Z</time>
      </trkpt>
      <trkpt lat="44.82322" lon="5.38811">
        <ele>889.3566895</ele>
        <time>2011-08-05T08:28:56Z</time>
      </trkpt>
      <trkpt lat="44.82328" lon="5.38851">
        <ele>889.8374023</ele>
        <time>2011-08-05T08:29:03Z</time>
      </trkpt>
      <trkpt lat="44.82336" lon="5.38896">
        <ele>890.3181152</ele>
        <time>2011-08-05T08:29:10Z</time>
      </trkpt>
      <trkpt lat="44.82335" lon="5.3893">
        <ele>890.798584</ele>
        <time>2011-08-05T08:29:15Z</time>
      </trkpt>
      <trkpt lat="44.82326" lon="5.38975">
        <ele>892.2409668</ele>
        <time>2011-08-05T08:29:22Z</time>
      </trkpt>
      <trkpt lat="44.82325" lon="5.39003">
        <ele>893.6828613</ele>
        <time>2011-08-05T08:29:27Z</time>
      </trkpt>
      <trkpt lat="44.82329" lon="5.39023">
        <ele>894.644043</ele>
        <time>2011-08-05T08:29:32Z</time>
      </trkpt>
      <trkpt lat="44.82337" lon="5.39047">
        <ele>896.0861816</ele>
        <time>2011-08-05T08:29:39Z</time>
      </trkpt>
      <trkpt lat="44.82351" lon="5.3907">
        <ele>898.0087891</ele>
        <time>2011-08-05T08:29:47Z</time>
      </trkpt>
      <trkpt lat="44.82365" lon="5.39087">
        <ele>899.9313965</ele>
        <time>2011-08-05T08:29:54Z</time>
      </trkpt>
      <trkpt lat="44.82383" lon="5.39108">
        <ele>901.8540039</ele>
        <time>2011-08-05T08:30:01Z</time>
      </trkpt>
      <trkpt lat="44.8241" lon="5.39138">
        <ele>904.737793</ele>
        <time>2011-08-05T08:30:10Z</time>
      </trkpt>
      <trkpt lat="44.82423" lon="5.3916">
        <ele>905.6992188</ele>
        <time>2011-08-05T08:30:15Z</time>
      </trkpt>
      <trkpt lat="44.82448" lon="5.39196">
        <ele>908.1027832</ele>
        <time>2011-08-05T08:30:24Z</time>
      </trkpt>
      <trkpt lat="44.82472" lon="5.39214">
        <ele>910.0251465</ele>
        <time>2011-08-05T08:30:31Z</time>
      </trkpt>
      <trkpt lat="44.82502" lon="5.39227">
        <ele>911.947998</ele>
        <time>2011-08-05T08:30:39Z</time>
      </trkpt>
      <trkpt lat="44.82517" lon="5.39238">
        <ele>912.9091797</ele>
        <time>2011-08-05T08:30:44Z</time>
      </trkpt>
      <trkpt lat="44.82533" lon="5.39261">
        <ele>914.3510742</ele>
        <time>2011-08-05T08:30:51Z</time>
      </trkpt>
      <trkpt lat="44.82554" lon="5.39283">
        <ele>915.7932129</ele>
        <time>2011-08-05T08:31:01Z</time>
      </trkpt>
      <trkpt lat="44.82566" lon="5.39294">
        <ele>916.7543945</ele>
        <time>2011-08-05T08:31:07Z</time>
      </trkpt>
      <trkpt lat="44.82588" lon="5.39311">
        <ele>917.7155762</ele>
        <time>2011-08-05T08:31:16Z</time>
      </trkpt>
      <trkpt lat="44.82597" lon="5.39317">
        <ele>917.2351074</ele>
        <time>2011-08-05T08:31:21Z</time>
      </trkpt>
      <trkpt lat="44.82608" lon="5.39323">
        <ele>919.1577148</ele>
        <time>2011-08-05T08:31:26Z</time>
      </trkpt>
      <trkpt lat="44.8262" lon="5.39332">
        <ele>920.1188965</ele>
        <time>2011-08-05T08:31:31Z</time>
      </trkpt>
      <trkpt lat="44.82638" lon="5.39341">
        <ele>921.0803223</ele>
        <time>2011-08-05T08:31:37Z</time>
      </trkpt>
      <trkpt lat="44.82657" lon="5.39337">
        <ele>921.560791</ele>
        <time>2011-08-05T08:31:43Z</time>
      </trkpt>
      <trkpt lat="44.82676" lon="5.3932">
        <ele>923.4836426</ele>
        <time>2011-08-05T08:31:50Z</time>
      </trkpt>
      <trkpt lat="44.82696" lon="5.39313">
        <ele>924.9257813</ele>
        <time>2011-08-05T08:31:56Z</time>
      </trkpt>
      <trkpt lat="44.82719" lon="5.39323">
        <ele>925.8869629</ele>
        <time>2011-08-05T08:32:03Z</time>
      </trkpt>
      <trkpt lat="44.82738" lon="5.39339">
        <ele>927.3291016</ele>
        <time>2011-08-05T08:32:10Z</time>
      </trkpt>
      <trkpt lat="44.82754" lon="5.39351">
        <ele>928.2902832</ele>
        <time>2011-08-05T08:32:16Z</time>
      </trkpt>
      <trkpt lat="44.82769" lon="5.39358">
        <ele>927.8095703</ele>
        <time>2011-08-05T08:32:21Z</time>
      </trkpt>
      <trkpt lat="44.82786" lon="5.39364">
        <ele>928.7709961</ele>
        <time>2011-08-05T08:32:27Z</time>
      </trkpt>
      <trkpt lat="44.82806" lon="5.39374">
        <ele>930.6936035</ele>
        <time>2011-08-05T08:32:34Z</time>
      </trkpt>
      <trkpt lat="44.82829" lon="5.39379">
        <ele>931.6547852</ele>
        <time>2011-08-05T08:32:41Z</time>
      </trkpt>
      <trkpt lat="44.82849" lon="5.39375">
        <ele>931.6547852</ele>
        <time>2011-08-05T08:32:47Z</time>
      </trkpt>
      <trkpt lat="44.82875" lon="5.39378">
        <ele>932.135498</ele>
        <time>2011-08-05T08:32:54Z</time>
      </trkpt>
      <trkpt lat="44.82903" lon="5.39392">
        <ele>932.6162109</ele>
        <time>2011-08-05T08:33:02Z</time>
      </trkpt>
      <trkpt lat="44.82933" lon="5.39397">
        <ele>933.5773926</ele>
        <time>2011-08-05T08:33:10Z</time>
      </trkpt>
      <trkpt lat="44.82969" lon="5.39398">
        <ele>935.0195313</ele>
        <time>2011-08-05T08:33:20Z</time>
      </trkpt>
      <trkpt lat="44.82998" lon="5.39406">
        <ele>937.4226074</ele>
        <time>2011-08-05T08:33:29Z</time>
      </trkpt>
      <trkpt lat="44.83014" lon="5.39409">
        <ele>938.3840332</ele>
        <time>2011-08-05T08:33:35Z</time>
      </trkpt>
      <trkpt lat="44.83032" lon="5.39414">
        <ele>939.3452148</ele>
        <time>2011-08-05T08:33:41Z</time>
      </trkpt>
      <trkpt lat="44.83061" lon="5.39427">
        <ele>941.2680664</ele>
        <time>2011-08-05T08:33:50Z</time>
      </trkpt>
      <trkpt lat="44.83091" lon="5.39446">
        <ele>943.1906738</ele>
        <time>2011-08-05T08:34:00Z</time>
      </trkpt>
      <trkpt lat="44.83109" lon="5.39452">
        <ele>944.6325684</ele>
        <time>2011-08-05T08:34:06Z</time>
      </trkpt>
      <trkpt lat="44.83138" lon="5.39461">
        <ele>946.074707</ele>
        <time>2011-08-05T08:34:15Z</time>
      </trkpt>
      <trkpt lat="44.83164" lon="5.39467">
        <ele>947.5166016</ele>
        <time>2011-08-05T08:34:23Z</time>
      </trkpt>
      <trkpt lat="44.83189" lon="5.39473">
        <ele>948.4777832</ele>
        <time>2011-08-05T08:34:31Z</time>
      </trkpt>
      <trkpt lat="44.83215" lon="5.39482">
        <ele>949.9199219</ele>
        <time>2011-08-05T08:34:40Z</time>
      </trkpt>
      <trkpt lat="44.83229" lon="5.39501">
        <ele>951.3618164</ele>
        <time>2011-08-05T08:34:46Z</time>
      </trkpt>
      <trkpt lat="44.83233" lon="5.3953">
        <ele>951.3618164</ele>
        <time>2011-08-05T08:34:53Z</time>
      </trkpt>
      <trkpt lat="44.83226" lon="5.3955">
        <ele>951.8425293</ele>
        <time>2011-08-05T08:34:58Z</time>
      </trkpt>
      <trkpt lat="44.83207" lon="5.3958">
        <ele>952.322998</ele>
        <time>2011-08-05T08:35:07Z</time>
      </trkpt>
      <trkpt lat="44.83194" lon="5.39599">
        <ele>953.2844238</ele>
        <time>2011-08-05T08:35:13Z</time>
      </trkpt>
      <trkpt lat="44.83175" lon="5.39625">
        <ele>955.6877441</ele>
        <time>2011-08-05T08:35:21Z</time>
      </trkpt>
      <trkpt lat="44.83153" lon="5.39645">
        <ele>957.6105957</ele>
        <time>2011-08-05T08:35:29Z</time>
      </trkpt>
      <trkpt lat="44.8312" lon="5.39661">
        <ele>962.4169922</ele>
        <time>2011-08-05T08:35:39Z</time>
      </trkpt>
      <trkpt lat="44.83095" lon="5.39681">
        <ele>965.3010254</ele>
        <time>2011-08-05T08:35:48Z</time>
      </trkpt>
      <trkpt lat="44.83074" lon="5.39703">
        <ele>966.7429199</ele>
        <time>2011-08-05T08:35:56Z</time>
      </trkpt>
      <trkpt lat="44.83056" lon="5.39726">
        <ele>965.3010254</ele>
        <time>2011-08-05T08:36:04Z</time>
      </trkpt>
      <trkpt lat="44.83036" lon="5.39748">
        <ele>965.7817383</ele>
        <time>2011-08-05T08:36:12Z</time>
      </trkpt>
      <trkpt lat="44.83019" lon="5.39759">
        <ele>967.2236328</ele>
        <time>2011-08-05T08:36:18Z</time>
      </trkpt>
      <trkpt lat="44.82995" lon="5.39776">
        <ele>969.1462402</ele>
        <time>2011-08-05T08:36:26Z</time>
      </trkpt>
      <trkpt lat="44.82972" lon="5.39791">
        <ele>971.0688477</ele>
        <time>2011-08-05T08:36:34Z</time>
      </trkpt>
      <trkpt lat="44.82944" lon="5.39804">
        <ele>972.5109863</ele>
        <time>2011-08-05T08:36:43Z</time>
      </trkpt>
      <trkpt lat="44.82924" lon="5.3981">
        <ele>973.4724121</ele>
        <time>2011-08-05T08:36:49Z</time>
      </trkpt>
      <trkpt lat="44.82914" lon="5.39826">
        <ele>973.9528809</ele>
        <time>2011-08-05T08:36:54Z</time>
      </trkpt>
      <trkpt lat="44.82915" lon="5.3983">
        <ele>973.9528809</ele>
        <time>2011-08-05T08:36:55Z</time>
      </trkpt>
      <trkpt lat="44.82926" lon="5.39841">
        <ele>973.9528809</ele>
        <time>2011-08-05T08:36:59Z</time>
      </trkpt>
      <trkpt lat="44.82937" lon="5.39837">
        <ele>973.9528809</ele>
        <time>2011-08-05T08:37:02Z</time>
      </trkpt>
      <trkpt lat="44.8296" lon="5.39822">
        <ele>972.9916992</ele>
        <time>2011-08-05T08:37:09Z</time>
      </trkpt>
      <trkpt lat="44.82981" lon="5.39813">
        <ele>972.9916992</ele>
        <time>2011-08-05T08:37:15Z</time>
      </trkpt>
      <trkpt lat="44.83008" lon="5.39802">
        <ele>974.4335938</ele>
        <time>2011-08-05T08:37:22Z</time>
      </trkpt>
      <trkpt lat="44.83044" lon="5.39788">
        <ele>975.3947754</ele>
        <time>2011-08-05T08:37:31Z</time>
      </trkpt>
      <trkpt lat="44.83072" lon="5.39769">
        <ele>976.8369141</ele>
        <time>2011-08-05T08:37:39Z</time>
      </trkpt>
      <trkpt lat="44.83101" lon="5.39744">
        <ele>977.7980957</ele>
        <time>2011-08-05T08:37:47Z</time>
      </trkpt>
      <trkpt lat="44.83134" lon="5.39723">
        <ele>979.2399902</ele>
        <time>2011-08-05T08:37:56Z</time>
      </trkpt>
      <trkpt lat="44.8316" lon="5.39714">
        <ele>982.6047363</ele>
        <time>2011-08-05T08:38:03Z</time>
      </trkpt>
      <trkpt lat="44.83182" lon="5.39712">
        <ele>985.4885254</ele>
        <time>2011-08-05T08:38:09Z</time>
      </trkpt>
      <trkpt lat="44.832" lon="5.397">
        <ele>987.8918457</ele>
        <time>2011-08-05T08:38:14Z</time>
      </trkpt>
      <trkpt lat="44.83217" lon="5.39676">
        <ele>988.3728027</ele>
        <time>2011-08-05T08:38:20Z</time>
      </trkpt>
      <trkpt lat="44.8322" lon="5.39672">
        <ele>988.8535156</ele>
        <time>2011-08-05T08:38:21Z</time>
      </trkpt>
      <trkpt lat="44.83248" lon="5.39655">
        <ele>989.8146973</ele>
        <time>2011-08-05T08:38:29Z</time>
      </trkpt>
      <trkpt lat="44.83267" lon="5.39634">
        <ele>993.6599121</ele>
        <time>2011-08-05T08:38:36Z</time>
      </trkpt>
      <trkpt lat="44.83279" lon="5.39612">
        <ele>996.0632324</ele>
        <time>2011-08-05T08:38:42Z</time>
      </trkpt>
      <trkpt lat="44.83294" lon="5.3958">
        <ele>998.9470215</ele>
        <time>2011-08-05T08:38:50Z</time>
      </trkpt>
      <trkpt lat="44.83313" lon="5.39558">
        <ele>999.9084473</ele>
        <time>2011-08-05T08:38:57Z</time>
      </trkpt>
      <trkpt lat="44.83333" lon="5.39538">
        <ele>998.9470215</ele>
        <time>2011-08-05T08:39:04Z</time>
      </trkpt>
      <trkpt lat="44.83349" lon="5.39513">
        <ele>1000.8696289</ele>
        <time>2011-08-05T08:39:11Z</time>
      </trkpt>
      <trkpt lat="44.83367" lon="5.39488">
        <ele>999.9084473</ele>
        <time>2011-08-05T08:39:18Z</time>
      </trkpt>
      <trkpt lat="44.83382" lon="5.39457">
        <ele>1000.3891602</ele>
        <time>2011-08-05T08:39:26Z</time>
      </trkpt>
      <trkpt lat="44.83387" lon="5.39428">
        <ele>1002.7922363</ele>
        <time>2011-08-05T08:39:32Z</time>
      </trkpt>
      <trkpt lat="44.83391" lon="5.39394">
        <ele>1004.2346191</ele>
        <time>2011-08-05T08:39:39Z</time>
      </trkpt>
      <trkpt lat="44.83392" lon="5.39375">
        <ele>1005.6765137</ele>
        <time>2011-08-05T08:39:43Z</time>
      </trkpt>
      <trkpt lat="44.83392" lon="5.39352">
        <ele>1007.1184082</ele>
        <time>2011-08-05T08:39:48Z</time>
      </trkpt>
      <trkpt lat="44.83387" lon="5.3933">
        <ele>1009.5217285</ele>
        <time>2011-08-05T08:39:53Z</time>
      </trkpt>
      <trkpt lat="44.83376" lon="5.39318">
        <ele>1010.963623</ele>
        <time>2011-08-05T08:39:57Z</time>
      </trkpt>
      <trkpt lat="44.83357" lon="5.39308">
        <ele>1012.8862305</ele>
        <time>2011-08-05T08:40:03Z</time>
      </trkpt>
      <trkpt lat="44.83335" lon="5.39306">
        <ele>1014.8088379</ele>
        <time>2011-08-05T08:40:08Z</time>
      </trkpt>
      <trkpt lat="44.83302" lon="5.393">
        <ele>1018.6540527</ele>
        <time>2011-08-05T08:40:17Z</time>
      </trkpt>
      <trkpt lat="44.83278" lon="5.39285">
        <ele>1022.0187988</ele>
        <time>2011-08-05T08:40:25Z</time>
      </trkpt>
      <trkpt lat="44.83262" lon="5.39285">
        <ele>1024.902832</ele>
        <time>2011-08-05T08:40:30Z</time>
      </trkpt>
      <trkpt lat="44.83247" lon="5.39296">
        <ele>1025.8640137</ele>
        <time>2011-08-05T08:40:35Z</time>
      </trkpt>
      <trkpt lat="44.83227" lon="5.39307">
        <ele>1024.902832</ele>
        <time>2011-08-05T08:40:41Z</time>
      </trkpt>
      <trkpt lat="44.83204" lon="5.39306">
        <ele>1027.3061523</ele>
        <time>2011-08-05T08:40:47Z</time>
      </trkpt>
      <trkpt lat="44.83174" lon="5.39293">
        <ele>1028.267334</ele>
        <time>2011-08-05T08:40:56Z</time>
      </trkpt>
      <trkpt lat="44.83147" lon="5.39287">
        <ele>1028.7480469</ele>
        <time>2011-08-05T08:41:04Z</time>
      </trkpt>
      <trkpt lat="44.83114" lon="5.3928">
        <ele>1030.6706543</ele>
        <time>2011-08-05T08:41:14Z</time>
      </trkpt>
      <trkpt lat="44.8309" lon="5.39267">
        <ele>1033.0737305</ele>
        <time>2011-08-05T08:41:22Z</time>
      </trkpt>
      <trkpt lat="44.83065" lon="5.39251">
        <ele>1033.5544434</ele>
        <time>2011-08-05T08:41:30Z</time>
      </trkpt>
      <trkpt lat="44.8304" lon="5.3925">
        <ele>1033.0737305</ele>
        <time>2011-08-05T08:41:37Z</time>
      </trkpt>
      <trkpt lat="44.83017" lon="5.39241">
        <ele>1033.5544434</ele>
        <time>2011-08-05T08:41:44Z</time>
      </trkpt>
      <trkpt lat="44.82989" lon="5.3922">
        <ele>1034.996582</ele>
        <time>2011-08-05T08:41:54Z</time>
      </trkpt>
      <trkpt lat="44.8296" lon="5.39202">
        <ele>1037.3999023</ele>
        <time>2011-08-05T08:42:04Z</time>
      </trkpt>
      <trkpt lat="44.82941" lon="5.3919">
        <ele>1035.9577637</ele>
        <time>2011-08-05T08:42:10Z</time>
      </trkpt>
      <trkpt lat="44.82911" lon="5.39171">
        <ele>1036.9191895</ele>
        <time>2011-08-05T08:42:20Z</time>
      </trkpt>
      <trkpt lat="44.82878" lon="5.39158">
        <ele>1036.4387207</ele>
        <time>2011-08-05T08:42:30Z</time>
      </trkpt>
      <trkpt lat="44.82854" lon="5.39157">
        <ele>1036.4387207</ele>
        <time>2011-08-05T08:42:37Z</time>
      </trkpt>
      <trkpt lat="44.82825" lon="5.3915">
        <ele>1036.9191895</ele>
        <time>2011-08-05T08:42:46Z</time>
      </trkpt>
      <trkpt lat="44.82802" lon="5.3913">
        <ele>1038.3613281</ele>
        <time>2011-08-05T08:42:54Z</time>
      </trkpt>
      <trkpt lat="44.82777" lon="5.39112">
        <ele>1040.7644043</ele>
        <time>2011-08-05T08:43:03Z</time>
      </trkpt>
      <trkpt lat="44.8275" lon="5.39097">
        <ele>1047.4936523</ele>
        <time>2011-08-05T08:43:12Z</time>
      </trkpt>
      <trkpt lat="44.82725" lon="5.39087">
        <ele>1054.2231445</ele>
        <time>2011-08-05T08:43:20Z</time>
      </trkpt>
      <trkpt lat="44.8269" lon="5.39067">
        <ele>1053.2617188</ele>
        <time>2011-08-05T08:43:31Z</time>
      </trkpt>
      <trkpt lat="44.82669" lon="5.39054">
        <ele>1053.2617188</ele>
        <time>2011-08-05T08:43:38Z</time>
      </trkpt>
      <trkpt lat="44.82649" lon="5.39031">
        <ele>1053.2617188</ele>
        <time>2011-08-05T08:43:46Z</time>
      </trkpt>
      <trkpt lat="44.82634" lon="5.39001">
        <ele>1052.7810059</ele>
        <time>2011-08-05T08:43:54Z</time>
      </trkpt>
      <trkpt lat="44.8262" lon="5.3897">
        <ele>1052.300293</ele>
        <time>2011-08-05T08:44:02Z</time>
      </trkpt>
      <trkpt lat="44.8261" lon="5.38938">
        <ele>1050.8581543</ele>
        <time>2011-08-05T08:44:10Z</time>
      </trkpt>
      <trkpt lat="44.82598" lon="5.38908">
        <ele>1052.7810059</ele>
        <time>2011-08-05T08:44:18Z</time>
      </trkpt>
      <trkpt lat="44.82581" lon="5.38874">
        <ele>1054.2231445</ele>
        <time>2011-08-05T08:44:27Z</time>
      </trkpt>
      <trkpt lat="44.82567" lon="5.38842">
        <ele>1054.2231445</ele>
        <time>2011-08-05T08:44:35Z</time>
      </trkpt>
      <trkpt lat="44.82558" lon="5.38807">
        <ele>1054.7036133</ele>
        <time>2011-08-05T08:44:43Z</time>
      </trkpt>
      <trkpt lat="44.82563" lon="5.3878">
        <ele>1055.6650391</ele>
        <time>2011-08-05T08:44:49Z</time>
      </trkpt>
      <trkpt lat="44.82569" lon="5.38748">
        <ele>1058.0683594</ele>
        <time>2011-08-05T08:44:56Z</time>
      </trkpt>
      <trkpt lat="44.8257" lon="5.38716">
        <ele>1060.4714355</ele>
        <time>2011-08-05T08:45:03Z</time>
      </trkpt>
      <trkpt lat="44.82567" lon="5.38683">
        <ele>1062.394043</ele>
        <time>2011-08-05T08:45:10Z</time>
      </trkpt>
      <trkpt lat="44.82564" lon="5.38653">
        <ele>1063.8359375</ele>
        <time>2011-08-05T08:45:17Z</time>
      </trkpt>
      <trkpt lat="44.8256" lon="5.3862">
        <ele>1065.7587891</ele>
        <time>2011-08-05T08:45:24Z</time>
      </trkpt>
      <trkpt lat="44.82554" lon="5.38575">
        <ele>1068.1621094</ele>
        <time>2011-08-05T08:45:34Z</time>
      </trkpt>
      <trkpt lat="44.82543" lon="5.38532">
        <ele>1070.0847168</ele>
        <time>2011-08-05T08:45:44Z</time>
      </trkpt>
      <trkpt lat="44.82527" lon="5.38498">
        <ele>1071.5266113</ele>
        <time>2011-08-05T08:45:53Z</time>
      </trkpt>
      <trkpt lat="44.82512" lon="5.38482">
        <ele>1072.4880371</ele>
        <time>2011-08-05T08:45:59Z</time>
      </trkpt>
      <trkpt lat="44.82488" lon="5.38469">
        <ele>1074.4106445</ele>
        <time>2011-08-05T08:46:07Z</time>
      </trkpt>
      <trkpt lat="44.82469" lon="5.38452">
        <ele>1075.3718262</ele>
        <time>2011-08-05T08:46:14Z</time>
      </trkpt>
      <trkpt lat="44.82462" lon="5.38442">
        <ele>1075.8525391</ele>
        <time>2011-08-05T08:46:17Z</time>
      </trkpt>
      <trkpt lat="44.82469" lon="5.38431">
        <ele>1076.333252</ele>
        <time>2011-08-05T08:46:21Z</time>
      </trkpt>
      <trkpt lat="44.82474" lon="5.38437">
        <ele>1076.333252</ele>
        <time>2011-08-05T08:46:23Z</time>
      </trkpt>
      <trkpt lat="44.82492" lon="5.3846">
        <ele>1077.2946777</ele>
        <time>2011-08-05T08:46:30Z</time>
      </trkpt>
      <trkpt lat="44.82512" lon="5.38468">
        <ele>1078.7365723</ele>
        <time>2011-08-05T08:46:36Z</time>
      </trkpt>
      <trkpt lat="44.8253" lon="5.38479">
        <ele>1079.217041</ele>
        <time>2011-08-05T08:46:42Z</time>
      </trkpt>
      <trkpt lat="44.82546" lon="5.38503">
        <ele>1080.1784668</ele>
        <time>2011-08-05T08:46:49Z</time>
      </trkpt>
      <trkpt lat="44.82564" lon="5.38538">
        <ele>1081.1398926</ele>
        <time>2011-08-05T08:46:58Z</time>
      </trkpt>
      <trkpt lat="44.82573" lon="5.38573">
        <ele>1082.5817871</ele>
        <time>2011-08-05T08:47:06Z</time>
      </trkpt>
      <trkpt lat="44.82578" lon="5.38614">
        <ele>1085.9465332</ele>
        <time>2011-08-05T08:47:15Z</time>
      </trkpt>
      <trkpt lat="44.82584" lon="5.38645">
        <ele>1087.3884277</ele>
        <time>2011-08-05T08:47:22Z</time>
      </trkpt>
      <trkpt lat="44.82593" lon="5.38684">
        <ele>1089.791748</ele>
        <time>2011-08-05T08:47:31Z</time>
      </trkpt>
      <trkpt lat="44.82597" lon="5.38731">
        <ele>1091.7143555</ele>
        <time>2011-08-05T08:47:41Z</time>
      </trkpt>
      <trkpt lat="44.82594" lon="5.38772">
        <ele>1092.6757813</ele>
        <time>2011-08-05T08:47:50Z</time>
      </trkpt>
      <trkpt lat="44.82598" lon="5.38798">
        <ele>1094.1176758</ele>
        <time>2011-08-05T08:47:56Z</time>
      </trkpt>
      <trkpt lat="44.8261" lon="5.38823">
        <ele>1094.1176758</ele>
        <time>2011-08-05T08:48:03Z</time>
      </trkpt>
      <trkpt lat="44.82631" lon="5.38859">
        <ele>1095.0788574</ele>
        <time>2011-08-05T08:48:13Z</time>
      </trkpt>
      <trkpt lat="44.82642" lon="5.3888">
        <ele>1095.0788574</ele>
        <time>2011-08-05T08:48:19Z</time>
      </trkpt>
      <trkpt lat="44.82656" lon="5.38905">
        <ele>1095.0788574</ele>
        <time>2011-08-05T08:48:26Z</time>
      </trkpt>
      <trkpt lat="44.82672" lon="5.38934">
        <ele>1095.5595703</ele>
        <time>2011-08-05T08:48:34Z</time>
      </trkpt>
      <trkpt lat="44.82682" lon="5.38951">
        <ele>1095.5595703</ele>
        <time>2011-08-05T08:48:39Z</time>
      </trkpt>
      <trkpt lat="44.827" lon="5.38972">
        <ele>1099.885498</ele>
        <time>2011-08-05T08:48:46Z</time>
      </trkpt>
      <trkpt lat="44.8271" lon="5.38978">
        <ele>1100.8469238</ele>
        <time>2011-08-05T08:48:51Z</time>
      </trkpt>
      <trkpt lat="44.82724" lon="5.38986">
        <ele>1102.2888184</ele>
        <time>2011-08-05T08:48:56Z</time>
      </trkpt>
      <trkpt lat="44.82747" lon="5.38996">
        <ele>1103.730957</ele>
        <time>2011-08-05T08:49:04Z</time>
      </trkpt>
      <trkpt lat="44.8277" lon="5.39003">
        <ele>1105.6535645</ele>
        <time>2011-08-05T08:49:12Z</time>
      </trkpt>
      <trkpt lat="44.82794" lon="5.3901">
        <ele>1107.095459</ele>
        <time>2011-08-05T08:49:20Z</time>
      </trkpt>
      <trkpt lat="44.82817" lon="5.39016">
        <ele>1107.5761719</ele>
        <time>2011-08-05T08:49:27Z</time>
      </trkpt>
      <trkpt lat="44.82843" lon="5.39018">
        <ele>1109.0180664</ele>
        <time>2011-08-05T08:49:35Z</time>
      </trkpt>
      <trkpt lat="44.82868" lon="5.39017">
        <ele>1110.9406738</ele>
        <time>2011-08-05T08:49:43Z</time>
      </trkpt>
      <trkpt lat="44.82891" lon="5.39017">
        <ele>1112.8632813</ele>
        <time>2011-08-05T08:49:50Z</time>
      </trkpt>
      <trkpt lat="44.82916" lon="5.3902">
        <ele>1115.2666016</ele>
        <time>2011-08-05T08:49:58Z</time>
      </trkpt>
      <trkpt lat="44.82947" lon="5.3903">
        <ele>1117.1894531</ele>
        <time>2011-08-05T08:50:08Z</time>
      </trkpt>
      <trkpt lat="44.82974" lon="5.39038">
        <ele>1119.5927734</ele>
        <time>2011-08-05T08:50:17Z</time>
      </trkpt>
      <trkpt lat="44.82993" lon="5.39048">
        <ele>1120.5539551</ele>
        <time>2011-08-05T08:50:23Z</time>
      </trkpt>
      <trkpt lat="44.83022" lon="5.39063">
        <ele>1132.5705566</ele>
        <time>2011-08-05T08:50:32Z</time>
      </trkpt>
      <trkpt lat="44.83038" lon="5.39065">
        <ele>1132.0898438</ele>
        <time>2011-08-05T08:50:38Z</time>
      </trkpt>
      <trkpt lat="44.83055" lon="5.39067">
        <ele>1131.128418</ele>
        <time>2011-08-05T08:50:44Z</time>
      </trkpt>
      <trkpt lat="44.83071" lon="5.39066">
        <ele>1130.1669922</ele>
        <time>2011-08-05T08:50:49Z</time>
      </trkpt>
      <trkpt lat="44.83092" lon="5.39066">
        <ele>1129.6862793</ele>
        <time>2011-08-05T08:50:56Z</time>
      </trkpt>
      <trkpt lat="44.8311" lon="5.39069">
        <ele>1129.6862793</ele>
        <time>2011-08-05T08:51:02Z</time>
      </trkpt>
      <trkpt lat="44.83138" lon="5.39073">
        <ele>1130.6477051</ele>
        <time>2011-08-05T08:51:11Z</time>
      </trkpt>
      <trkpt lat="44.83166" lon="5.39068">
        <ele>1131.128418</ele>
        <time>2011-08-05T08:51:20Z</time>
      </trkpt>
      <trkpt lat="44.83196" lon="5.3906">
        <ele>1133.0510254</ele>
        <time>2011-08-05T08:51:30Z</time>
      </trkpt>
      <trkpt lat="44.83209" lon="5.39053">
        <ele>1135.4543457</ele>
        <time>2011-08-05T08:51:35Z</time>
      </trkpt>
      <trkpt lat="44.8322" lon="5.39047">
        <ele>1137.857666</ele>
        <time>2011-08-05T08:51:39Z</time>
      </trkpt>
      <trkpt lat="44.83245" lon="5.39035">
        <ele>1142.6643066</ele>
        <time>2011-08-05T08:51:47Z</time>
      </trkpt>
      <trkpt lat="44.83272" lon="5.39024">
        <ele>1146.0288086</ele>
        <time>2011-08-05T08:51:56Z</time>
      </trkpt>
      <trkpt lat="44.83295" lon="5.3902">
        <ele>1148.4321289</ele>
        <time>2011-08-05T08:52:04Z</time>
      </trkpt>
      <trkpt lat="44.83313" lon="5.39029">
        <ele>1148.4321289</ele>
        <time>2011-08-05T08:52:10Z</time>
      </trkpt>
      <trkpt lat="44.83333" lon="5.39054">
        <ele>1153.7194824</ele>
        <time>2011-08-05T08:52:18Z</time>
      </trkpt>
      <trkpt lat="44.83351" lon="5.3906">
        <ele>1156.6032715</ele>
        <time>2011-08-05T08:52:24Z</time>
      </trkpt>
      <trkpt lat="44.83368" lon="5.39051">
        <ele>1158.0454102</ele>
        <time>2011-08-05T08:52:30Z</time>
      </trkpt>
      <trkpt lat="44.83388" lon="5.39027">
        <ele>1161.890625</ele>
        <time>2011-08-05T08:52:38Z</time>
      </trkpt>
      <trkpt lat="44.8341" lon="5.39013">
        <ele>1168.619873</ele>
        <time>2011-08-05T08:52:46Z</time>
      </trkpt>
      <trkpt lat="44.83429" lon="5.39014">
        <ele>1171.984375</ele>
        <time>2011-08-05T08:52:52Z</time>
      </trkpt>
      <trkpt lat="44.83444" lon="5.39018">
        <ele>1174.3876953</ele>
        <time>2011-08-05T08:52:58Z</time>
      </trkpt>
      <trkpt lat="44.83456" lon="5.39026">
        <ele>1174.8684082</ele>
        <time>2011-08-05T08:53:03Z</time>
      </trkpt>
      <trkpt lat="44.83479" lon="5.39046">
        <ele>1172.4650879</ele>
        <time>2011-08-05T08:53:12Z</time>
      </trkpt>
      <trkpt lat="44.83499" lon="5.39066">
        <ele>1171.5036621</ele>
        <time>2011-08-05T08:53:20Z</time>
      </trkpt>
      <trkpt lat="44.83519" lon="5.39084">
        <ele>1169.5812988</ele>
        <time>2011-08-05T08:53:28Z</time>
      </trkpt>
      <trkpt lat="44.83538" lon="5.39104">
        <ele>1169.1005859</ele>
        <time>2011-08-05T08:53:36Z</time>
      </trkpt>
      <trkpt lat="44.83561" lon="5.39131">
        <ele>1173.4265137</ele>
        <time>2011-08-05T08:53:45Z</time>
      </trkpt>
      <trkpt lat="44.83582" lon="5.39153">
        <ele>1172.4650879</ele>
        <time>2011-08-05T08:53:54Z</time>
      </trkpt>
      <trkpt lat="44.83597" lon="5.39169">
        <ele>1173.4265137</ele>
        <time>2011-08-05T08:54:00Z</time>
      </trkpt>
      <trkpt lat="44.83618" lon="5.39191">
        <ele>1173.9069824</ele>
        <time>2011-08-05T08:54:09Z</time>
      </trkpt>
      <trkpt lat="44.83638" lon="5.39213">
        <ele>1175.8295898</ele>
        <time>2011-08-05T08:54:17Z</time>
      </trkpt>
      <trkpt lat="44.83658" lon="5.39233">
        <ele>1178.2329102</ele>
        <time>2011-08-05T08:54:25Z</time>
      </trkpt>
      <trkpt lat="44.83681" lon="5.39256">
        <ele>1180.1557617</ele>
        <time>2011-08-05T08:54:34Z</time>
      </trkpt>
      <trkpt lat="44.83701" lon="5.39276">
        <ele>1182.0783691</ele>
        <time>2011-08-05T08:54:42Z</time>
      </trkpt>
      <trkpt lat="44.83727" lon="5.39299">
        <ele>1184.0009766</ele>
        <time>2011-08-05T08:54:52Z</time>
      </trkpt>
      <trkpt lat="44.83751" lon="5.39323">
        <ele>1187.3654785</ele>
        <time>2011-08-05T08:55:01Z</time>
      </trkpt>
      <trkpt lat="44.83769" lon="5.39342">
        <ele>1187.3654785</ele>
        <time>2011-08-05T08:55:08Z</time>
      </trkpt>
      <trkpt lat="44.83784" lon="5.39366">
        <ele>1181.5976563</ele>
        <time>2011-08-05T08:55:16Z</time>
      </trkpt>
      <trkpt lat="44.83781" lon="5.39382">
        <ele>1173.9069824</ele>
        <time>2011-08-05T08:55:21Z</time>
      </trkpt>
      <trkpt lat="44.83769" lon="5.39415">
        <ele>1172.9458008</ele>
        <time>2011-08-05T08:55:29Z</time>
      </trkpt>
      <trkpt lat="44.83752" lon="5.39454">
        <ele>1172.9458008</ele>
        <time>2011-08-05T08:55:39Z</time>
      </trkpt>
      <trkpt lat="44.8374" lon="5.39484">
        <ele>1173.4265137</ele>
        <time>2011-08-05T08:55:47Z</time>
      </trkpt>
      <trkpt lat="44.83728" lon="5.39508">
        <ele>1174.3876953</ele>
        <time>2011-08-05T08:55:54Z</time>
      </trkpt>
      <trkpt lat="44.83712" lon="5.39543">
        <ele>1175.348877</ele>
        <time>2011-08-05T08:56:04Z</time>
      </trkpt>
      <trkpt lat="44.837" lon="5.39576">
        <ele>1176.3103027</ele>
        <time>2011-08-05T08:56:12Z</time>
      </trkpt>
      <trkpt lat="44.83694" lon="5.39606">
        <ele>1175.8295898</ele>
        <time>2011-08-05T08:56:19Z</time>
      </trkpt>
      <trkpt lat="44.83691" lon="5.39626">
        <ele>1176.3103027</ele>
        <time>2011-08-05T08:56:24Z</time>
      </trkpt>
      <trkpt lat="44.83687" lon="5.39664">
        <ele>1177.2717285</ele>
        <time>2011-08-05T08:56:33Z</time>
      </trkpt>
      <trkpt lat="44.83684" lon="5.39691">
        <ele>1178.713623</ele>
        <time>2011-08-05T08:56:39Z</time>
      </trkpt>
      <trkpt lat="44.83676" lon="5.39708">
        <ele>1180.6364746</ele>
        <time>2011-08-05T08:56:44Z</time>
      </trkpt>
      <trkpt lat="44.8366" lon="5.3974">
        <ele>1184.4816895</ele>
        <time>2011-08-05T08:56:52Z</time>
      </trkpt>
      <trkpt lat="44.83655" lon="5.39754">
        <ele>1184.9624023</ele>
        <time>2011-08-05T08:56:55Z</time>
      </trkpt>
      <trkpt lat="44.83663" lon="5.39767">
        <ele>1184.4816895</ele>
        <time>2011-08-05T08:56:59Z</time>
      </trkpt>
      <trkpt lat="44.83674" lon="5.3976">
        <ele>1184.4816895</ele>
        <time>2011-08-05T08:57:02Z</time>
      </trkpt>
      <trkpt lat="44.83679" lon="5.3975">
        <ele>1184.4816895</ele>
        <time>2011-08-05T08:57:04Z</time>
      </trkpt>
      <trkpt lat="44.8369" lon="5.39727">
        <ele>1184.9624023</ele>
        <time>2011-08-05T08:57:09Z</time>
      </trkpt>
      <trkpt lat="44.83699" lon="5.39717">
        <ele>1185.4428711</ele>
        <time>2011-08-05T08:57:12Z</time>
      </trkpt>
      <trkpt lat="44.83713" lon="5.39687">
        <ele>1186.4042969</ele>
        <time>2011-08-05T08:57:19Z</time>
      </trkpt>
      <trkpt lat="44.8372" lon="5.3964">
        <ele>1189.2880859</ele>
        <time>2011-08-05T08:57:29Z</time>
      </trkpt>
      <trkpt lat="44.83728" lon="5.39605">
        <ele>1190.7299805</ele>
        <time>2011-08-05T08:57:38Z</time>
      </trkpt>
      <trkpt lat="44.83729" lon="5.39598">
        <ele>1191.2106934</ele>
        <time>2011-08-05T08:57:41Z</time>
      </trkpt>
      <trkpt lat="44.83733" lon="5.39587">
        <ele>1192.652832</ele>
        <time>2011-08-05T08:57:46Z</time>
      </trkpt>
      <trkpt lat="44.83743" lon="5.39569">
        <ele>1193.6140137</ele>
        <time>2011-08-05T08:57:52Z</time>
      </trkpt>
      <trkpt lat="44.83757" lon="5.39547">
        <ele>1194.5751953</ele>
        <time>2011-08-05T08:57:59Z</time>
      </trkpt>
      <trkpt lat="44.83775" lon="5.39525">
        <ele>1196.9787598</ele>
        <time>2011-08-05T08:58:07Z</time>
      </trkpt>
      <trkpt lat="44.83787" lon="5.39501">
        <ele>1200.3435059</ele>
        <time>2011-08-05T08:58:14Z</time>
      </trkpt>
      <trkpt lat="44.83803" lon="5.3947">
        <ele>1202.746582</ele>
        <time>2011-08-05T08:58:23Z</time>
      </trkpt>
      <trkpt lat="44.83816" lon="5.39448">
        <ele>1206.5917969</ele>
        <time>2011-08-05T08:58:30Z</time>
      </trkpt>
      <trkpt lat="44.83828" lon="5.39429">
        <ele>1208.5144043</ele>
        <time>2011-08-05T08:58:36Z</time>
      </trkpt>
      <trkpt lat="44.83844" lon="5.39397">
        <ele>1211.8791504</ele>
        <time>2011-08-05T08:58:45Z</time>
      </trkpt>
      <trkpt lat="44.83855" lon="5.39371">
        <ele>1210.9177246</ele>
        <time>2011-08-05T08:58:52Z</time>
      </trkpt>
      <trkpt lat="44.83855" lon="5.39351">
        <ele>1210.9177246</ele>
        <time>2011-08-05T08:58:57Z</time>
      </trkpt>
      <trkpt lat="44.83848" lon="5.39329">
        <ele>1210.4370117</ele>
        <time>2011-08-05T08:59:02Z</time>
      </trkpt>
      <trkpt lat="44.83832" lon="5.39301">
        <ele>1210.9177246</ele>
        <time>2011-08-05T08:59:10Z</time>
      </trkpt>
      <trkpt lat="44.83814" lon="5.39276">
        <ele>1211.3984375</ele>
        <time>2011-08-05T08:59:18Z</time>
      </trkpt>
      <trkpt lat="44.83799" lon="5.39255">
        <ele>1211.8791504</ele>
        <time>2011-08-05T08:59:25Z</time>
      </trkpt>
      <trkpt lat="44.83778" lon="5.39231">
        <ele>1213.8017578</ele>
        <time>2011-08-05T08:59:34Z</time>
      </trkpt>
      <trkpt lat="44.83765" lon="5.39214">
        <ele>1213.8017578</ele>
        <time>2011-08-05T08:59:40Z</time>
      </trkpt>
      <trkpt lat="44.83749" lon="5.39197">
        <ele>1221.9729004</ele>
        <time>2011-08-05T08:59:47Z</time>
      </trkpt>
      <trkpt lat="44.83729" lon="5.39172">
        <ele>1221.0117188</ele>
        <time>2011-08-05T08:59:55Z</time>
      </trkpt>
      <trkpt lat="44.8371" lon="5.3915">
        <ele>1225.3374023</ele>
        <time>2011-08-05T09:00:03Z</time>
      </trkpt>
      <trkpt lat="44.83695" lon="5.39134">
        <ele>1225.3374023</ele>
        <time>2011-08-05T09:00:09Z</time>
      </trkpt>
      <trkpt lat="44.83691" lon="5.39125">
        <ele>1226.2988281</ele>
        <time>2011-08-05T09:00:12Z</time>
      </trkpt>
      <trkpt lat="44.83699" lon="5.39122">
        <ele>1226.779541</ele>
        <time>2011-08-05T09:00:15Z</time>
      </trkpt>
      <trkpt lat="44.83704" lon="5.39129">
        <ele>1227.7407227</ele>
        <time>2011-08-05T09:00:17Z</time>
      </trkpt>
      <trkpt lat="44.83721" lon="5.39155">
        <ele>1229.1828613</ele>
        <time>2011-08-05T09:00:25Z</time>
      </trkpt>
      <trkpt lat="44.83739" lon="5.39171">
        <ele>1230.1442871</ele>
        <time>2011-08-05T09:00:32Z</time>
      </trkpt>
      <trkpt lat="44.83759" lon="5.39187">
        <ele>1230.1442871</ele>
        <time>2011-08-05T09:00:40Z</time>
      </trkpt>
      <trkpt lat="44.83776" lon="5.39203">
        <ele>1230.625</ele>
        <time>2011-08-05T09:00:47Z</time>
      </trkpt>
      <trkpt lat="44.83795" lon="5.3922">
        <ele>1231.1057129</ele>
        <time>2011-08-05T09:00:54Z</time>
      </trkpt>
      <trkpt lat="44.83821" lon="5.39243">
        <ele>1232.0668945</ele>
        <time>2011-08-05T09:01:03Z</time>
      </trkpt>
      <trkpt lat="44.83847" lon="5.39268">
        <ele>1233.5087891</ele>
        <time>2011-08-05T09:01:12Z</time>
      </trkpt>
      <trkpt lat="44.83871" lon="5.39294">
        <ele>1233.989502</ele>
        <time>2011-08-05T09:01:21Z</time>
      </trkpt>
      <trkpt lat="44.83887" lon="5.39318">
        <ele>1233.0280762</ele>
        <time>2011-08-05T09:01:28Z</time>
      </trkpt>
      <trkpt lat="44.83902" lon="5.39345">
        <ele>1233.5087891</ele>
        <time>2011-08-05T09:01:35Z</time>
      </trkpt>
      <trkpt lat="44.83913" lon="5.39367">
        <ele>1233.5087891</ele>
        <time>2011-08-05T09:01:41Z</time>
      </trkpt>
      <trkpt lat="44.83914" lon="5.39392">
        <ele>1233.989502</ele>
        <time>2011-08-05T09:01:46Z</time>
      </trkpt>
      <trkpt lat="44.83907" lon="5.39424">
        <ele>1235.9121094</ele>
        <time>2011-08-05T09:01:53Z</time>
      </trkpt>
      <trkpt lat="44.83901" lon="5.39445">
        <ele>1238.3154297</ele>
        <time>2011-08-05T09:01:59Z</time>
      </trkpt>
      <trkpt lat="44.83888" lon="5.3946">
        <ele>1241.1992188</ele>
        <time>2011-08-05T09:02:04Z</time>
      </trkpt>
      <trkpt lat="44.83867" lon="5.39488">
        <ele>1246.0061035</ele>
        <time>2011-08-05T09:02:13Z</time>
      </trkpt>
      <trkpt lat="44.83854" lon="5.39517">
        <ele>1246.0061035</ele>
        <time>2011-08-05T09:02:20Z</time>
      </trkpt>
      <trkpt lat="44.83841" lon="5.39553">
        <ele>1246.0061035</ele>
        <time>2011-08-05T09:02:29Z</time>
      </trkpt>
      <trkpt lat="44.83824" lon="5.39596">
        <ele>1247.447998</ele>
        <time>2011-08-05T09:02:40Z</time>
      </trkpt>
      <trkpt lat="44.83811" lon="5.39634">
        <ele>1247.9287109</ele>
        <time>2011-08-05T09:02:50Z</time>
      </trkpt>
      <trkpt lat="44.83808" lon="5.39665">
        <ele>1247.9287109</ele>
        <time>2011-08-05T09:02:58Z</time>
      </trkpt>
      <trkpt lat="44.83806" lon="5.39695">
        <ele>1248.8898926</ele>
        <time>2011-08-05T09:03:06Z</time>
      </trkpt>
      <trkpt lat="44.83803" lon="5.39719">
        <ele>1249.3706055</ele>
        <time>2011-08-05T09:03:13Z</time>
      </trkpt>
      <trkpt lat="44.83798" lon="5.39727">
        <ele>1249.3706055</ele>
        <time>2011-08-05T09:03:17Z</time>
      </trkpt>
      <trkpt lat="44.83798" lon="5.39729">
        <ele>1250.3320313</ele>
        <time>2011-08-05T09:03:20Z</time>
      </trkpt>
      <trkpt lat="44.83794" lon="5.39733">
        <ele>1258.9836426</ele>
        <time>2011-08-05T09:10:09Z</time>
      </trkpt>
      <trkpt lat="44.83796" lon="5.39735">
        <ele>1258.5029297</ele>
        <time>2011-08-05T09:10:11Z</time>
      </trkpt>
      <trkpt lat="44.83796" lon="5.39735">
        <ele>1258.0224609</ele>
        <time>2011-08-05T09:10:12Z</time>
      </trkpt>
      <trkpt lat="44.83804" lon="5.39734">
        <ele>1247.9287109</ele>
        <time>2011-08-05T09:11:58Z</time>
      </trkpt>
      <trkpt lat="44.8381" lon="5.3974">
        <ele>1246.9672852</ele>
        <time>2011-08-05T09:12:01Z</time>
      </trkpt>
      <trkpt lat="44.83812" lon="5.39747">
        <ele>1246.4868164</ele>
        <time>2011-08-05T09:12:03Z</time>
      </trkpt>
    </trkseg>
    </trkseg>
      <trkpt lat="44.84049" lon="5.40591">
        <ele>1296.4753418</ele>
        <time>2011-08-05T09:14:13Z</time>
      </trkpt>
      <trkpt lat="44.84061" lon="5.40657">
        <ele>1379.6291504</ele>
        <time>2011-08-05T09:14:15Z</time>
      </trkpt>
      <trkpt lat="44.84044" lon="5.40642">
        <ele>1309.453125</ele>
        <time>2011-08-05T09:14:19Z</time>
      </trkpt>
      <trkpt lat="44.84038" lon="5.40641">
        <ele>1296.9558105</ele>
        <time>2011-08-05T09:14:20Z</time>
      </trkpt>
      <trkpt lat="44.8403" lon="5.40645">
        <ele>1288.784668</ele>
        <time>2011-08-05T09:14:22Z</time>
      </trkpt>
      <trkpt lat="44.8402" lon="5.40645">
        <ele>1272.4421387</ele>
        <time>2011-08-05T09:14:25Z</time>
      </trkpt>
      <trkpt lat="44.84013" lon="5.40656">
        <ele>1265.7131348</ele>
        <time>2011-08-05T09:14:30Z</time>
      </trkpt>
      <trkpt lat="44.84013" lon="5.4066">
        <ele>1263.7902832</ele>
        <time>2011-08-05T09:14:34Z</time>
      </trkpt>
      <trkpt lat="44.84018" lon="5.40665">
        <ele>1260.9064941</ele>
        <time>2011-08-05T09:14:44Z</time>
      </trkpt>
      <trkpt lat="44.84019" lon="5.40671">
        <ele>1260.4257813</ele>
        <time>2011-08-05T09:14:46Z</time>
      </trkpt>
      <trkpt lat="44.84025" lon="5.40664">
        <ele>1253.6965332</ele>
        <time>2011-08-05T09:15:15Z</time>
      </trkpt>
      <trkpt lat="44.84021" lon="5.40654">
        <ele>1249.3706055</ele>
        <time>2011-08-05T09:15:19Z</time>
      </trkpt>
      <trkpt lat="44.84019" lon="5.40653">
        <ele>1249.8513184</ele>
        <time>2011-08-05T09:15:21Z</time>
      </trkpt>
      <trkpt lat="44.8402" lon="5.40657">
        <ele>1253.6965332</ele>
        <time>2011-08-05T09:15:26Z</time>
      </trkpt>
      <trkpt lat="44.84047" lon="5.4066">
        <ele>1255.1384277</ele>
        <time>2011-08-05T09:15:45Z</time>
      </trkpt>
      <trkpt lat="44.84024" lon="5.40658">
        <ele>1255.1384277</ele>
        <time>2011-08-05T09:15:46Z</time>
      </trkpt>
      <trkpt lat="44.84018" lon="5.40655">
        <ele>1251.7739258</ele>
        <time>2011-08-05T09:15:53Z</time>
      </trkpt>
      <trkpt lat="44.84017" lon="5.40653">
        <ele>1252.2543945</ele>
        <time>2011-08-05T09:15:56Z</time>
      </trkpt>
      <trkpt lat="44.8394" lon="5.40621">
        <ele>1269.5583496</ele>
        <time>2011-08-05T09:39:55Z</time>
      </trkpt>
      <trkpt lat="44.83941" lon="5.40622">
        <ele>1268.5969238</ele>
        <time>2011-08-05T09:39:56Z</time>
      </trkpt>
      <trkpt lat="44.83943" lon="5.40623">
        <ele>1266.1936035</ele>
        <time>2011-08-05T09:39:59Z</time>
      </trkpt>
      <trkpt lat="44.83951" lon="5.40611">
        <ele>1264.751709</ele>
        <time>2011-08-05T09:40:05Z</time>
      </trkpt>
      <trkpt lat="44.83959" lon="5.40613">
        <ele>1261.8679199</ele>
        <time>2011-08-05T09:40:08Z</time>
      </trkpt>
      <trkpt lat="44.83962" lon="5.40616">
        <ele>1261.387207</ele>
        <time>2011-08-05T09:40:09Z</time>
      </trkpt>
      <trkpt lat="44.83975" lon="5.40625">
        <ele>1257.541748</ele>
        <time>2011-08-05T09:40:15Z</time>
      </trkpt>
      <trkpt lat="44.83993" lon="5.40629">
        <ele>1256.5803223</ele>
        <time>2011-08-05T09:40:21Z</time>
      </trkpt>
      <trkpt lat="44.84017" lon="5.40627">
        <ele>1255.6191406</ele>
        <time>2011-08-05T09:40:27Z</time>
      </trkpt>
      <trkpt lat="44.84044" lon="5.4062">
        <ele>1253.6965332</ele>
        <time>2011-08-05T09:40:33Z</time>
      </trkpt>
      <trkpt lat="44.84048" lon="5.40619">
        <ele>1253.6965332</ele>
        <time>2011-08-05T09:40:34Z</time>
      </trkpt>
      <trkpt lat="44.8406" lon="5.40603">
        <ele>1252.7351074</ele>
        <time>2011-08-05T09:40:39Z</time>
      </trkpt>
      <trkpt lat="44.84057" lon="5.40594">
        <ele>1252.7351074</ele>
        <time>2011-08-05T09:40:41Z</time>
      </trkpt>
      <trkpt lat="44.84043" lon="5.40564">
        <ele>1253.2158203</ele>
        <time>2011-08-05T09:40:48Z</time>
      </trkpt>
      <trkpt lat="44.84033" lon="5.40536">
        <ele>1254.1772461</ele>
        <time>2011-08-05T09:40:54Z</time>
      </trkpt>
      <trkpt lat="44.83817" lon="5.39703">
        <ele>1243.6025391</ele>
        <time>2011-08-05T09:42:48Z</time>
      </trkpt>
      <trkpt lat="44.83814" lon="5.39661">
        <ele>1241.1992188</ele>
        <time>2011-08-05T09:42:52Z</time>
      </trkpt>
      <trkpt lat="44.83814" lon="5.39654">
        <ele>1241.6799316</ele>
        <time>2011-08-05T09:42:53Z</time>
      </trkpt>
      <trkpt lat="44.83815" lon="5.39635">
        <ele>1241.6799316</ele>
        <time>2011-08-05T09:42:56Z</time>
      </trkpt>
      <trkpt lat="44.83828" lon="5.39595">
        <ele>1241.1992188</ele>
        <time>2011-08-05T09:43:01Z</time>
      </trkpt>
      <trkpt lat="44.83847" lon="5.39548">
        <ele>1239.7573242</ele>
        <time>2011-08-05T09:43:06Z</time>
      </trkpt>
      <trkpt lat="44.83872" lon="5.39492">
        <ele>1237.3540039</ele>
        <time>2011-08-05T09:43:11Z</time>
      </trkpt>
      <trkpt lat="44.83892" lon="5.3946">
        <ele>1236.3928223</ele>
        <time>2011-08-05T09:43:14Z</time>
      </trkpt>
      <trkpt lat="44.83914" lon="5.39411">
        <ele>1234.9509277</ele>
        <time>2011-08-05T09:43:18Z</time>
      </trkpt>
      <trkpt lat="44.83918" lon="5.39368">
        <ele>1233.989502</ele>
        <time>2011-08-05T09:43:21Z</time>
      </trkpt>
      <trkpt lat="44.8391" lon="5.39342">
        <ele>1232.5476074</ele>
        <time>2011-08-05T09:43:23Z</time>
      </trkpt>
      <trkpt lat="44.83896" lon="5.39319">
        <ele>1232.0668945</ele>
        <time>2011-08-05T09:43:25Z</time>
      </trkpt>
      <trkpt lat="44.83848" lon="5.39257">
        <ele>1229.6635742</ele>
        <time>2011-08-05T09:43:31Z</time>
      </trkpt>
      <trkpt lat="44.83791" lon="5.39205">
        <ele>1226.2988281</ele>
        <time>2011-08-05T09:43:37Z</time>
      </trkpt>
      <trkpt lat="44.83721" lon="5.39146">
        <ele>1223.4150391</ele>
        <time>2011-08-05T09:43:44Z</time>
      </trkpt>
      <trkpt lat="44.83693" lon="5.3911">
        <ele>1221.9729004</ele>
        <time>2011-08-05T09:43:48Z</time>
      </trkpt>
      <trkpt lat="44.83683" lon="5.39115">
        <ele>1220.5310059</ele>
        <time>2011-08-05T09:43:50Z</time>
      </trkpt>
      <trkpt lat="44.83684" lon="5.39132">
        <ele>1219.5698242</ele>
        <time>2011-08-05T09:43:52Z</time>
      </trkpt>
      <trkpt lat="44.83695" lon="5.39144">
        <ele>1218.6083984</ele>
        <time>2011-08-05T09:43:54Z</time>
      </trkpt>
      <trkpt lat="44.83709" lon="5.39156">
        <ele>1218.1276855</ele>
        <time>2011-08-05T09:43:56Z</time>
      </trkpt>
      <trkpt lat="44.83761" lon="5.39217">
        <ele>1214.7631836</ele>
        <time>2011-08-05T09:44:03Z</time>
      </trkpt>
      <trkpt lat="44.83817" lon="5.39289">
        <ele>1213.3212891</ele>
        <time>2011-08-05T09:44:10Z</time>
      </trkpt>
      <trkpt lat="44.8384" lon="5.39325">
        <ele>1211.8791504</ele>
        <time>2011-08-05T09:44:13Z</time>
      </trkpt>
      <trkpt lat="44.83853" lon="5.39382">
        <ele>1208.9951172</ele>
        <time>2011-08-05T09:44:17Z</time>
      </trkpt>
      <trkpt lat="44.83843" lon="5.39409">
        <ele>1208.0339355</ele>
        <time>2011-08-05T09:44:19Z</time>
      </trkpt>
      <trkpt lat="44.83796" lon="5.39477">
        <ele>1203.2272949</ele>
        <time>2011-08-05T09:44:25Z</time>
      </trkpt>
      <trkpt lat="44.83775" lon="5.39514">
        <ele>1201.7854004</ele>
        <time>2011-08-05T09:44:28Z</time>
      </trkpt>
      <trkpt lat="44.83749" lon="5.39547">
        <ele>1199.3820801</ele>
        <time>2011-08-05T09:44:31Z</time>
      </trkpt>
      <trkpt lat="44.83722" lon="5.39601">
        <ele>1196.498291</ele>
        <time>2011-08-05T09:44:35Z</time>
      </trkpt>
      <trkpt lat="44.83706" lon="5.39682">
        <ele>1192.652832</ele>
        <time>2011-08-05T09:44:40Z</time>
      </trkpt>
      <trkpt lat="44.83689" lon="5.39721">
        <ele>1189.7687988</ele>
        <time>2011-08-05T09:44:43Z</time>
      </trkpt>
      <trkpt lat="44.83671" lon="5.39756">
        <ele>1188.3269043</ele>
        <time>2011-08-05T09:44:46Z</time>
      </trkpt>
      <trkpt lat="44.83664" lon="5.39771">
        <ele>1187.3654785</ele>
        <time>2011-08-05T09:44:48Z</time>
      </trkpt>
      <trkpt lat="44.83659" lon="5.39756">
        <ele>1186.4042969</ele>
        <time>2011-08-05T09:44:50Z</time>
      </trkpt>
      <trkpt lat="44.83666" lon="5.39742">
        <ele>1185.923584</ele>
        <time>2011-08-05T09:44:52Z</time>
      </trkpt>
      <trkpt lat="44.8367" lon="5.39734">
        <ele>1185.4428711</ele>
        <time>2011-08-05T09:44:53Z</time>
      </trkpt>
      <trkpt lat="44.83687" lon="5.39709">
        <ele>1184.0009766</ele>
        <time>2011-08-05T09:44:56Z</time>
      </trkpt>
      <trkpt lat="44.83699" lon="5.39657">
        <ele>1181.1171875</ele>
        <time>2011-08-05T09:45:00Z</time>
      </trkpt>
      <trkpt lat="44.83701" lon="5.39609">
        <ele>1178.713623</ele>
        <time>2011-08-05T09:45:03Z</time>
      </trkpt>
      <trkpt lat="44.83721" lon="5.39533">
        <ele>1175.348877</ele>
        <time>2011-08-05T09:45:08Z</time>
      </trkpt>
      <trkpt lat="44.83727" lon="5.3952">
        <ele>1174.3876953</ele>
        <time>2011-08-05T09:45:09Z</time>
      </trkpt>
      <trkpt lat="44.83766" lon="5.39435">
        <ele>1171.0231934</ele>
        <time>2011-08-05T09:45:15Z</time>
      </trkpt>
      <trkpt lat="44.83777" lon="5.39406">
        <ele>1170.0617676</ele>
        <time>2011-08-05T09:45:17Z</time>
      </trkpt>
      <trkpt lat="44.83784" lon="5.39361">
        <ele>1169.1005859</ele>
        <time>2011-08-05T09:45:20Z</time>
      </trkpt>
      <trkpt lat="44.83777" lon="5.39336">
        <ele>1167.6584473</ele>
        <time>2011-08-05T09:45:22Z</time>
      </trkpt>
      <trkpt lat="44.83753" lon="5.39307">
        <ele>1166.2165527</ele>
        <time>2011-08-05T09:45:25Z</time>
      </trkpt>
      <trkpt lat="44.83697" lon="5.39254">
        <ele>1162.3710938</ele>
        <time>2011-08-05T09:45:31Z</time>
      </trkpt>
      <trkpt lat="44.83607" lon="5.39166">
        <ele>1156.1225586</ele>
        <time>2011-08-05T09:45:40Z</time>
      </trkpt>
      <trkpt lat="44.83527" lon="5.39082">
        <ele>1149.3935547</ele>
        <time>2011-08-05T09:45:48Z</time>
      </trkpt>
      <trkpt lat="44.83454" lon="5.39011">
        <ele>1146.0288086</ele>
        <time>2011-08-05T09:45:55Z</time>
      </trkpt>
      <trkpt lat="44.83406" lon="5.38995">
        <ele>1144.5866699</ele>
        <time>2011-08-05T09:45:59Z</time>
      </trkpt>
      <trkpt lat="44.83382" lon="5.39008">
        <ele>1143.6254883</ele>
        <time>2011-08-05T09:46:01Z</time>
      </trkpt>
      <trkpt lat="44.83372" lon="5.39019">
        <ele>1143.1447754</ele>
        <time>2011-08-05T09:46:02Z</time>
      </trkpt>
      <trkpt lat="44.83333" lon="5.39045">
        <ele>1139.7802734</ele>
        <time>2011-08-05T09:46:06Z</time>
      </trkpt>
      <trkpt lat="44.83316" lon="5.39032">
        <ele>1139.2995605</ele>
        <time>2011-08-05T09:46:08Z</time>
      </trkpt>
      <trkpt lat="44.83288" lon="5.39012">
        <ele>1138.3383789</ele>
        <time>2011-08-05T09:46:11Z</time>
      </trkpt>
      <trkpt lat="44.83267" lon="5.39016">
        <ele>1138.3383789</ele>
        <time>2011-08-05T09:46:13Z</time>
      </trkpt>
      <trkpt lat="44.83256" lon="5.39021">
        <ele>1137.857666</ele>
        <time>2011-08-05T09:46:14Z</time>
      </trkpt>
      <trkpt lat="44.83215" lon="5.39044">
        <ele>1135.4543457</ele>
        <time>2011-08-05T09:46:18Z</time>
      </trkpt>
      <trkpt lat="44.83159" lon="5.39061">
        <ele>1131.6088867</ele>
        <time>2011-08-05T09:46:23Z</time>
      </trkpt>
      <trkpt lat="44.83148" lon="5.39064">
        <ele>1131.128418</ele>
        <time>2011-08-05T09:46:24Z</time>
      </trkpt>
      <trkpt lat="44.83101" lon="5.39062">
        <ele>1127.2832031</ele>
        <time>2011-08-05T09:46:28Z</time>
      </trkpt>
      <trkpt lat="44.8309" lon="5.3906">
        <ele>1126.3217773</ele>
        <time>2011-08-05T09:46:29Z</time>
      </trkpt>
      <trkpt lat="44.83029" lon="5.39054">
        <ele>1121.9958496</ele>
        <time>2011-08-05T09:46:34Z</time>
      </trkpt>
      <trkpt lat="44.82933" lon="5.39023">
        <ele>1115.2666016</ele>
        <time>2011-08-05T09:46:42Z</time>
      </trkpt>
      <trkpt lat="44.82921" lon="5.39019">
        <ele>1114.7858887</ele>
        <time>2011-08-05T09:46:43Z</time>
      </trkpt>
      <trkpt lat="44.82859" lon="5.39014">
        <ele>1110.9406738</ele>
        <time>2011-08-05T09:46:48Z</time>
      </trkpt>
      <trkpt lat="44.82797" lon="5.3901">
        <ele>1107.5761719</ele>
        <time>2011-08-05T09:46:53Z</time>
      </trkpt>
      <trkpt lat="44.82737" lon="5.38989">
        <ele>1104.6921387</ele>
        <time>2011-08-05T09:46:58Z</time>
      </trkpt>
      <trkpt lat="44.82714" lon="5.38977">
        <ele>1102.7695313</ele>
        <time>2011-08-05T09:47:00Z</time>
      </trkpt>
      <trkpt lat="44.82674" lon="5.38935">
        <ele>1098.9240723</ele>
        <time>2011-08-05T09:47:04Z</time>
      </trkpt>
      <trkpt lat="44.82615" lon="5.38822">
        <ele>1092.1950684</ele>
        <time>2011-08-05T09:47:12Z</time>
      </trkpt>
      <trkpt lat="44.82608" lon="5.38809">
        <ele>1091.7143555</ele>
        <time>2011-08-05T09:47:13Z</time>
      </trkpt>
      <trkpt lat="44.82598" lon="5.38761">
        <ele>1088.8305664</ele>
        <time>2011-08-05T09:47:16Z</time>
      </trkpt>
      <trkpt lat="44.82597" lon="5.38695">
        <ele>1085.9465332</ele>
        <time>2011-08-05T09:47:20Z</time>
      </trkpt>
      <trkpt lat="44.82585" lon="5.38632">
        <ele>1084.0239258</ele>
        <time>2011-08-05T09:47:24Z</time>
      </trkpt>
      <trkpt lat="44.82569" lon="5.38553">
        <ele>1081.1398926</ele>
        <time>2011-08-05T09:47:29Z</time>
      </trkpt>
      <trkpt lat="44.82565" lon="5.38537">
        <ele>1080.6591797</ele>
        <time>2011-08-05T09:47:30Z</time>
      </trkpt>
      <trkpt lat="44.82537" lon="5.38482">
        <ele>1077.2946777</ele>
        <time>2011-08-05T09:47:34Z</time>
      </trkpt>
      <trkpt lat="44.82505" lon="5.38458">
        <ele>1075.8525391</ele>
        <time>2011-08-05T09:47:37Z</time>
      </trkpt>
      <trkpt lat="44.82479" lon="5.38436">
        <ele>1074.4106445</ele>
        <time>2011-08-05T09:47:40Z</time>
      </trkpt>
      <trkpt lat="44.82461" lon="5.38427">
        <ele>1072.96875</ele>
        <time>2011-08-05T09:47:43Z</time>
      </trkpt>
      <trkpt lat="44.82458" lon="5.38444">
        <ele>1072.4880371</ele>
        <time>2011-08-05T09:47:45Z</time>
      </trkpt>
      <trkpt lat="44.82466" lon="5.3846">
        <ele>1072.0073242</ele>
        <time>2011-08-05T09:47:47Z</time>
      </trkpt>
      <trkpt lat="44.82488" lon="5.38477">
        <ele>1071.0461426</ele>
        <time>2011-08-05T09:47:50Z</time>
      </trkpt>
      <trkpt lat="44.82505" lon="5.38487">
        <ele>1070.5654297</ele>
        <time>2011-08-05T09:47:52Z</time>
      </trkpt>
      <trkpt lat="44.82537" lon="5.38526">
        <ele>1068.6428223</ele>
        <time>2011-08-05T09:47:56Z</time>
      </trkpt>
      <trkpt lat="44.8255" lon="5.38572">
        <ele>1066.2392578</ele>
        <time>2011-08-05T09:47:59Z</time>
      </trkpt>
      <trkpt lat="44.82564" lon="5.38686">
        <ele>1062.8747559</ele>
        <time>2011-08-05T09:48:06Z</time>
      </trkpt>
      <trkpt lat="44.82567" lon="5.38719">
        <ele>1061.4328613</ele>
        <time>2011-08-05T09:48:08Z</time>
      </trkpt>
      <trkpt lat="44.82558" lon="5.38784">
        <ele>1059.9907227</ele>
        <time>2011-08-05T09:48:12Z</time>
      </trkpt>
      <trkpt lat="44.82557" lon="5.38832">
        <ele>1058.0683594</ele>
        <time>2011-08-05T09:48:15Z</time>
      </trkpt>
      <trkpt lat="44.82567" lon="5.38862">
        <ele>1057.1069336</ele>
        <time>2011-08-05T09:48:17Z</time>
      </trkpt>
      <trkpt lat="44.826" lon="5.38931">
        <ele>1054.2231445</ele>
        <time>2011-08-05T09:48:22Z</time>
      </trkpt>
      <trkpt lat="44.8263" lon="5.39006">
        <ele>1051.3388672</ele>
        <time>2011-08-05T09:48:27Z</time>
      </trkpt>
      <trkpt lat="44.82637" lon="5.3902">
        <ele>1050.3776855</ele>
        <time>2011-08-05T09:48:28Z</time>
      </trkpt>
      <trkpt lat="44.82674" lon="5.39065">
        <ele>1047.0129395</ele>
        <time>2011-08-05T09:48:32Z</time>
      </trkpt>
      <trkpt lat="44.82685" lon="5.39072">
        <ele>1046.5324707</ele>
        <time>2011-08-05T09:48:33Z</time>
      </trkpt>
      <trkpt lat="44.82754" lon="5.3911">
        <ele>1043.1677246</ele>
        <time>2011-08-05T09:48:39Z</time>
      </trkpt>
      <trkpt lat="44.8282" lon="5.39157">
        <ele>1038.3613281</ele>
        <time>2011-08-05T09:48:45Z</time>
      </trkpt>
      <trkpt lat="44.82868" lon="5.39166">
        <ele>1034.5158691</ele>
        <time>2011-08-05T09:48:49Z</time>
      </trkpt>
      <trkpt lat="44.82916" lon="5.39182">
        <ele>1031.1513672</ele>
        <time>2011-08-05T09:48:53Z</time>
      </trkpt>
      <trkpt lat="44.82996" lon="5.39232">
        <ele>1024.902832</ele>
        <time>2011-08-05T09:49:00Z</time>
      </trkpt>
      <trkpt lat="44.83018" lon="5.39247">
        <ele>1023.4609375</ele>
        <time>2011-08-05T09:49:02Z</time>
      </trkpt>
      <trkpt lat="44.83055" lon="5.39258">
        <ele>1021.5380859</ele>
        <time>2011-08-05T09:49:05Z</time>
      </trkpt>
      <trkpt lat="44.83101" lon="5.3928">
        <ele>1020.0961914</ele>
        <time>2011-08-05T09:49:09Z</time>
      </trkpt>
      <trkpt lat="44.83137" lon="5.39293">
        <ele>1018.1733398</ele>
        <time>2011-08-05T09:49:12Z</time>
      </trkpt>
      <trkpt lat="44.83149" lon="5.39295">
        <ele>1017.692627</ele>
        <time>2011-08-05T09:49:13Z</time>
      </trkpt>
      <trkpt lat="44.83197" lon="5.39309">
        <ele>1014.8088379</ele>
        <time>2011-08-05T09:49:17Z</time>
      </trkpt>
      <trkpt lat="44.83234" lon="5.39308">
        <ele>1012.4055176</ele>
        <time>2011-08-05T09:49:20Z</time>
      </trkpt>
      <trkpt lat="44.83246" lon="5.39301">
        <ele>1011.9250488</ele>
        <time>2011-08-05T09:49:21Z</time>
      </trkpt>
      <trkpt lat="44.83289" lon="5.39295">
        <ele>1008.5603027</ele>
        <time>2011-08-05T09:49:25Z</time>
      </trkpt>
      <trkpt lat="44.83299" lon="5.39301">
        <ele>1007.5991211</ele>
        <time>2011-08-05T09:49:26Z</time>
      </trkpt>
      <trkpt lat="44.83343" lon="5.39312">
        <ele>1005.1958008</ele>
        <time>2011-08-05T09:49:30Z</time>
      </trkpt>
      <trkpt lat="44.83354" lon="5.39313">
        <ele>1004.7150879</ele>
        <time>2011-08-05T09:49:31Z</time>
      </trkpt>
      <trkpt lat="44.83383" lon="5.39327">
        <ele>1002.3115234</ele>
        <time>2011-08-05T09:49:34Z</time>
      </trkpt>
      <trkpt lat="44.83394" lon="5.39351">
        <ele>1000.8696289</ele>
        <time>2011-08-05T09:49:36Z</time>
      </trkpt>
      <trkpt lat="44.83396" lon="5.39381">
        <ele>999.9084473</ele>
        <time>2011-08-05T09:49:38Z</time>
      </trkpt>
      <trkpt lat="44.83395" lon="5.39396">
        <ele>998.9470215</ele>
        <time>2011-08-05T09:49:39Z</time>
      </trkpt>
      <trkpt lat="44.83389" lon="5.39428">
        <ele>997.9858398</ele>
        <time>2011-08-05T09:49:41Z</time>
      </trkpt>
      <trkpt lat="44.83366" lon="5.39488">
        <ele>996.0632324</ele>
        <time>2011-08-05T09:49:45Z</time>
      </trkpt>
      <trkpt lat="44.83342" lon="5.39527">
        <ele>993.6599121</ele>
        <time>2011-08-05T09:49:48Z</time>
      </trkpt>
      <trkpt lat="44.83303" lon="5.39572">
        <ele>991.2565918</ele>
        <time>2011-08-05T09:49:52Z</time>
      </trkpt>
      <trkpt lat="44.8328" lon="5.39613">
        <ele>989.8146973</ele>
        <time>2011-08-05T09:49:55Z</time>
      </trkpt>
      <trkpt lat="44.83252" lon="5.39649">
        <ele>988.3728027</ele>
        <time>2011-08-05T09:49:58Z</time>
      </trkpt>
      <trkpt lat="44.83219" lon="5.39673">
        <ele>987.4111328</ele>
        <time>2011-08-05T09:50:01Z</time>
      </trkpt>
      <trkpt lat="44.8319" lon="5.39706">
        <ele>985.9692383</ele>
        <time>2011-08-05T09:50:04Z</time>
      </trkpt>
      <trkpt lat="44.83166" lon="5.39714">
        <ele>985.0080566</ele>
        <time>2011-08-05T09:50:06Z</time>
      </trkpt>
      <trkpt lat="44.83108" lon="5.39733">
        <ele>982.6047363</ele>
        <time>2011-08-05T09:50:11Z</time>
      </trkpt>
      <trkpt lat="44.83098" lon="5.3974">
        <ele>982.1240234</ele>
        <time>2011-08-05T09:50:12Z</time>
      </trkpt>
      <trkpt lat="44.83057" lon="5.39775">
        <ele>980.6821289</ele>
        <time>2011-08-05T09:50:16Z</time>
      </trkpt>
      <trkpt lat="44.8299" lon="5.3981">
        <ele>978.2788086</ele>
        <time>2011-08-05T09:50:22Z</time>
      </trkpt>
      <trkpt lat="44.82957" lon="5.39825">
        <ele>976.3562012</ele>
        <time>2011-08-05T09:50:25Z</time>
      </trkpt>
      <trkpt lat="44.82931" lon="5.39842">
        <ele>975.8754883</ele>
        <time>2011-08-05T09:50:28Z</time>
      </trkpt>
      <trkpt lat="44.82918" lon="5.39826">
        <ele>976.3562012</ele>
        <time>2011-08-05T09:50:31Z</time>
      </trkpt>
      <trkpt lat="44.82925" lon="5.39814">
        <ele>976.8369141</ele>
        <time>2011-08-05T09:50:33Z</time>
      </trkpt>
      <trkpt lat="44.82941" lon="5.3981">
        <ele>977.7980957</ele>
        <time>2011-08-05T09:50:35Z</time>
      </trkpt>
      <trkpt lat="44.82992" lon="5.39785">
        <ele>977.317627</ele>
        <time>2011-08-05T09:50:41Z</time>
      </trkpt>
      <trkpt lat="44.83042" lon="5.3975">
        <ele>975.3947754</ele>
        <time>2011-08-05T09:50:46Z</time>
      </trkpt>
      <trkpt lat="44.8308" lon="5.3971">
        <ele>973.4724121</ele>
        <time>2011-08-05T09:50:50Z</time>
      </trkpt>
      <trkpt lat="44.8313" lon="5.39665">
        <ele>971.0688477</ele>
        <time>2011-08-05T09:50:55Z</time>
      </trkpt>
      <trkpt lat="44.83152" lon="5.39651">
        <ele>969.6269531</ele>
        <time>2011-08-05T09:50:57Z</time>
      </trkpt>
      <trkpt lat="44.83189" lon="5.3961">
        <ele>966.7429199</ele>
        <time>2011-08-05T09:51:01Z</time>
      </trkpt>
      <trkpt lat="44.8322" lon="5.39558">
        <ele>962.8977051</ele>
        <time>2011-08-05T09:51:05Z</time>
      </trkpt>
      <trkpt lat="44.83233" lon="5.39518">
        <ele>960.0136719</ele>
        <time>2011-08-05T09:51:08Z</time>
      </trkpt>
      <trkpt lat="44.83228" lon="5.39493">
        <ele>957.6105957</ele>
        <time>2011-08-05T09:51:10Z</time>
      </trkpt>
      <trkpt lat="44.83214" lon="5.39475">
        <ele>954.7263184</ele>
        <time>2011-08-05T09:51:12Z</time>
      </trkpt>
      <trkpt lat="44.83185" lon="5.39462">
        <ele>950.4006348</ele>
        <time>2011-08-05T09:51:15Z</time>
      </trkpt>
      <trkpt lat="44.83116" lon="5.39445">
        <ele>942.7102051</ele>
        <time>2011-08-05T09:51:21Z</time>
      </trkpt>
      <trkpt lat="44.83068" lon="5.39425">
        <ele>938.3840332</ele>
        <time>2011-08-05T09:51:25Z</time>
      </trkpt>
      <trkpt lat="44.83057" lon="5.39418">
        <ele>937.4226074</ele>
        <time>2011-08-05T09:51:26Z</time>
      </trkpt>
      <trkpt lat="44.82997" lon="5.39397">
        <ele>932.6162109</ele>
        <time>2011-08-05T09:51:31Z</time>
      </trkpt>
      <trkpt lat="44.8296" lon="5.39387">
        <ele>929.7321777</ele>
        <time>2011-08-05T09:51:34Z</time>
      </trkpt>
      <trkpt lat="44.82923" lon="5.39385">
        <ele>926.8483887</ele>
        <time>2011-08-05T09:51:37Z</time>
      </trkpt>
      <trkpt lat="44.82877" lon="5.3937">
        <ele>924.9257813</ele>
        <time>2011-08-05T09:51:41Z</time>
      </trkpt>
      <trkpt lat="44.82833" lon="5.39367">
        <ele>923.0029297</ele>
        <time>2011-08-05T09:51:45Z</time>
      </trkpt>
      <trkpt lat="44.82802" lon="5.39362">
        <ele>921.0803223</ele>
        <time>2011-08-05T09:51:48Z</time>
      </trkpt>
      <trkpt lat="44.82762" lon="5.39345">
        <ele>918.1962891</ele>
        <time>2011-08-05T09:51:52Z</time>
      </trkpt>
      <trkpt lat="44.82734" lon="5.39324">
        <ele>916.2736816</ele>
        <time>2011-08-05T09:51:55Z</time>
      </trkpt>
      <trkpt lat="44.82694" lon="5.39304">
        <ele>913.3898926</ele>
        <time>2011-08-05T09:51:59Z</time>
      </trkpt>
      <trkpt lat="44.82673" lon="5.3931">
        <ele>912.4284668</ele>
        <time>2011-08-05T09:52:01Z</time>
      </trkpt>
      <trkpt lat="44.82642" lon="5.39328">
        <ele>910.9865723</ele>
        <time>2011-08-05T09:52:04Z</time>
      </trkpt>
      <trkpt lat="44.8262" lon="5.39323">
        <ele>910.0251465</ele>
        <time>2011-08-05T09:52:06Z</time>
      </trkpt>
      <trkpt lat="44.8261" lon="5.39317">
        <ele>909.0639648</ele>
        <time>2011-08-05T09:52:07Z</time>
      </trkpt>
      <trkpt lat="44.82549" lon="5.39272">
        <ele>904.737793</ele>
        <time>2011-08-05T09:52:13Z</time>
      </trkpt>
      <trkpt lat="44.82522" lon="5.39239">
        <ele>902.3344727</ele>
        <time>2011-08-05T09:52:16Z</time>
      </trkpt>
      <trkpt lat="44.82481" lon="5.39209">
        <ele>899.9313965</ele>
        <time>2011-08-05T09:52:20Z</time>
      </trkpt>
      <trkpt lat="44.82469" lon="5.39203">
        <ele>898.9699707</ele>
        <time>2011-08-05T09:52:21Z</time>
      </trkpt>
      <trkpt lat="44.8243" lon="5.39164">
        <ele>896.0861816</ele>
        <time>2011-08-05T09:52:25Z</time>
      </trkpt>
      <trkpt lat="44.82397" lon="5.39114">
        <ele>893.2021484</ele>
        <time>2011-08-05T09:52:29Z</time>
      </trkpt>
      <trkpt lat="44.82349" lon="5.39059">
        <ele>889.3566895</ele>
        <time>2011-08-05T09:52:34Z</time>
      </trkpt>
      <trkpt lat="44.82326" lon="5.39">
        <ele>886.4729004</ele>
        <time>2011-08-05T09:52:38Z</time>
      </trkpt>
      <trkpt lat="44.82327" lon="5.38966">
        <ele>884.550293</ele>
        <time>2011-08-05T09:52:40Z</time>
      </trkpt>
      <trkpt lat="44.82331" lon="5.38949">
        <ele>883.5888672</ele>
        <time>2011-08-05T09:52:41Z</time>
      </trkpt>
      <trkpt lat="44.82333" lon="5.38868">
        <ele>882.1469727</ele>
        <time>2011-08-05T09:52:46Z</time>
      </trkpt>
      <trkpt lat="44.82327" lon="5.38839">
        <ele>881.6662598</ele>
        <time>2011-08-05T09:52:48Z</time>
      </trkpt>
      <trkpt lat="44.82321" lon="5.38793">
        <ele>882.6276855</ele>
        <time>2011-08-05T09:52:52Z</time>
      </trkpt>
      <trkpt lat="44.8231" lon="5.38792">
        <ele>882.1469727</ele>
        <time>2011-08-05T09:52:54Z</time>
      </trkpt>
      <trkpt lat="44.82305" lon="5.38806">
        <ele>882.1469727</ele>
        <time>2011-08-05T09:52:56Z</time>
      </trkpt>
      <trkpt lat="44.8231" lon="5.38824">
        <ele>882.1469727</ele>
        <time>2011-08-05T09:52:58Z</time>
      </trkpt>
      <trkpt lat="44.82324" lon="5.3888">
        <ele>881.185791</ele>
        <time>2011-08-05T09:53:03Z</time>
      </trkpt>
      <trkpt lat="44.82321" lon="5.38934">
        <ele>879.2629395</ele>
        <time>2011-08-05T09:53:07Z</time>
      </trkpt>
      <trkpt lat="44.82312" lon="5.38962">
        <ele>877.8210449</ele>
        <time>2011-08-05T09:53:09Z</time>
      </trkpt>
      <trkpt lat="44.82301" lon="5.38989">
        <ele>876.8598633</ele>
        <time>2011-08-05T09:53:11Z</time>
      </trkpt>
      <trkpt lat="44.82295" lon="5.39035">
        <ele>874.9370117</ele>
        <time>2011-08-05T09:53:14Z</time>
      </trkpt>
      <trkpt lat="44.82307" lon="5.39081">
        <ele>873.0144043</ele>
        <time>2011-08-05T09:53:17Z</time>
      </trkpt>
      <trkpt lat="44.82326" lon="5.39122">
        <ele>871.5722656</ele>
        <time>2011-08-05T09:53:20Z</time>
      </trkpt>
      <trkpt lat="44.82365" lon="5.39187">
        <ele>868.6884766</ele>
        <time>2011-08-05T09:53:25Z</time>
      </trkpt>
      <trkpt lat="44.82383" lon="5.39232">
        <ele>866.7658691</ele>
        <time>2011-08-05T09:53:28Z</time>
      </trkpt>
      <trkpt lat="44.82417" lon="5.39281">
        <ele>864.3625488</ele>
        <time>2011-08-05T09:53:32Z</time>
      </trkpt>
      <trkpt lat="44.82437" lon="5.39298">
        <ele>862.9206543</ele>
        <time>2011-08-05T09:53:34Z</time>
      </trkpt>
      <trkpt lat="44.82485" lon="5.39347">
        <ele>860.0366211</ele>
        <time>2011-08-05T09:53:39Z</time>
      </trkpt>
      <trkpt lat="44.82521" lon="5.3939">
        <ele>857.6333008</ele>
        <time>2011-08-05T09:53:43Z</time>
      </trkpt>
      <trkpt lat="44.82573" lon="5.39432">
        <ele>854.2687988</ele>
        <time>2011-08-05T09:53:48Z</time>
      </trkpt>
      <trkpt lat="44.82584" lon="5.3944">
        <ele>853.7880859</ele>
        <time>2011-08-05T09:53:49Z</time>
      </trkpt>
      <trkpt lat="44.8263" lon="5.39456">
        <ele>850.9040527</ele>
        <time>2011-08-05T09:53:53Z</time>
      </trkpt>
      <trkpt lat="44.82655" lon="5.39458">
        <ele>849.9428711</ele>
        <time>2011-08-05T09:53:55Z</time>
      </trkpt>
      <trkpt lat="44.8269" lon="5.39473">
        <ele>847.5395508</ele>
        <time>2011-08-05T09:53:58Z</time>
      </trkpt>
      <trkpt lat="44.8275" lon="5.39492">
        <ele>843.6940918</ele>
        <time>2011-08-05T09:54:03Z</time>
      </trkpt>
      <trkpt lat="44.82796" lon="5.3951">
        <ele>840.3295898</ele>
        <time>2011-08-05T09:54:07Z</time>
      </trkpt>
      <trkpt lat="44.82817" lon="5.39534">
        <ele>838.8876953</ele>
        <time>2011-08-05T09:54:10Z</time>
      </trkpt>
      <trkpt lat="44.82817" lon="5.39557">
        <ele>837.4455566</ele>
        <time>2011-08-05T09:54:12Z</time>
      </trkpt>
      <trkpt lat="44.82805" lon="5.39575">
        <ele>836.484375</ele>
        <time>2011-08-05T09:54:14Z</time>
      </trkpt>
      <trkpt lat="44.82797" lon="5.39582">
        <ele>836.0036621</ele>
        <time>2011-08-05T09:54:15Z</time>
      </trkpt>
      <trkpt lat="44.82744" lon="5.39629">
        <ele>832.1584473</ele>
        <time>2011-08-05T09:54:21Z</time>
      </trkpt>
      <trkpt lat="44.82693" lon="5.39667">
        <ele>830.2358398</ele>
        <time>2011-08-05T09:54:26Z</time>
      </trkpt>
      <trkpt lat="44.82673" lon="5.39681">
        <ele>829.2744141</ele>
        <time>2011-08-05T09:54:28Z</time>
      </trkpt>
      <trkpt lat="44.82636" lon="5.39719">
        <ele>828.7939453</ele>
        <time>2011-08-05T09:54:32Z</time>
      </trkpt>
      <trkpt lat="44.82601" lon="5.39757">
        <ele>826.8710938</ele>
        <time>2011-08-05T09:54:36Z</time>
      </trkpt>
      <trkpt lat="44.82576" lon="5.39783">
        <ele>825.4289551</ele>
        <time>2011-08-05T09:54:39Z</time>
      </trkpt>
      <trkpt lat="44.82561" lon="5.39788">
        <ele>823.5065918</ele>
        <time>2011-08-05T09:54:42Z</time>
      </trkpt>
      <trkpt lat="44.82559" lon="5.39771">
        <ele>822.0644531</ele>
        <time>2011-08-05T09:54:45Z</time>
      </trkpt>
      <trkpt lat="44.82571" lon="5.39759">
        <ele>821.1032715</ele>
        <time>2011-08-05T09:54:48Z</time>
      </trkpt>
      <trkpt lat="44.8259" lon="5.3975">
        <ele>819.661377</ele>
        <time>2011-08-05T09:54:51Z</time>
      </trkpt>
      <trkpt lat="44.82621" lon="5.39713">
        <ele>817.2580566</ele>
        <time>2011-08-05T09:54:56Z</time>
      </trkpt>
      <trkpt lat="44.82661" lon="5.39654">
        <ele>814.8547363</ele>
        <time>2011-08-05T09:55:02Z</time>
      </trkpt>
      <trkpt lat="44.82669" lon="5.39645">
        <ele>814.3740234</ele>
        <time>2011-08-05T09:55:03Z</time>
      </trkpt>
      <trkpt lat="44.82712" lon="5.39605">
        <ele>813.8933105</ele>
        <time>2011-08-05T09:55:08Z</time>
      </trkpt>
      <trkpt lat="44.82726" lon="5.39573">
        <ele>812.9321289</ele>
        <time>2011-08-05T09:55:11Z</time>
      </trkpt>
      <trkpt lat="44.82721" lon="5.39552">
        <ele>811.9707031</ele>
        <time>2011-08-05T09:55:13Z</time>
      </trkpt>
      <trkpt lat="44.827" lon="5.39532">
        <ele>810.5285645</ele>
        <time>2011-08-05T09:55:16Z</time>
      </trkpt>
      <trkpt lat="44.82683" lon="5.39523">
        <ele>809.5673828</ele>
        <time>2011-08-05T09:55:18Z</time>
      </trkpt>
      <trkpt lat="44.82635" lon="5.39514">
        <ele>808.1254883</ele>
        <time>2011-08-05T09:55:23Z</time>
      </trkpt>
      <trkpt lat="44.82584" lon="5.39506">
        <ele>803.7995605</ele>
        <time>2011-08-05T09:55:28Z</time>
      </trkpt>
      <trkpt lat="44.82542" lon="5.39499">
        <ele>799.4736328</ele>
        <time>2011-08-05T09:55:32Z</time>
      </trkpt>
      <trkpt lat="44.8252" lon="5.395">
        <ele>798.0317383</ele>
        <time>2011-08-05T09:55:34Z</time>
      </trkpt>
      <trkpt lat="44.82465" lon="5.39487">
        <ele>793.7055664</ele>
        <time>2011-08-05T09:55:39Z</time>
      </trkpt>
      <trkpt lat="44.82444" lon="5.39475">
        <ele>792.2636719</ele>
        <time>2011-08-05T09:55:41Z</time>
      </trkpt>
      <trkpt lat="44.82402" lon="5.39447">
        <ele>789.3796387</ele>
        <time>2011-08-05T09:55:45Z</time>
      </trkpt>
      <trkpt lat="44.82391" lon="5.39444">
        <ele>788.418457</ele>
        <time>2011-08-05T09:55:46Z</time>
      </trkpt>
      <trkpt lat="44.82311" lon="5.39422">
        <ele>783.1311035</ele>
        <time>2011-08-05T09:55:53Z</time>
      </trkpt>
      <trkpt lat="44.823" lon="5.39416">
        <ele>782.6506348</ele>
        <time>2011-08-05T09:55:54Z</time>
      </trkpt>
      <trkpt lat="44.82261" lon="5.39378">
        <ele>779.2856445</ele>
        <time>2011-08-05T09:55:58Z</time>
      </trkpt>
      <trkpt lat="44.82241" lon="5.39361">
        <ele>777.84375</ele>
        <time>2011-08-05T09:56:00Z</time>
      </trkpt>
      <trkpt lat="44.82197" lon="5.39303">
        <ele>773.9985352</ele>
        <time>2011-08-05T09:56:05Z</time>
      </trkpt>
      <trkpt lat="44.82163" lon="5.39215">
        <ele>770.1533203</ele>
        <time>2011-08-05T09:56:11Z</time>
      </trkpt>
      <trkpt lat="44.82157" lon="5.39189">
        <ele>769.6728516</ele>
        <time>2011-08-05T09:56:13Z</time>
      </trkpt>
      <trkpt lat="44.82143" lon="5.39175">
        <ele>768.7114258</ele>
        <time>2011-08-05T09:56:16Z</time>
      </trkpt>
      <trkpt lat="44.82135" lon="5.39181">
        <ele>768.2307129</ele>
        <time>2011-08-05T09:56:19Z</time>
      </trkpt>
      <trkpt lat="44.82135" lon="5.39185">
        <ele>768.2307129</ele>
        <time>2011-08-05T09:56:22Z</time>
      </trkpt>
      <trkpt lat="44.82139" lon="5.39196">
        <ele>769.6728516</ele>
        <time>2011-08-05T09:56:25Z</time>
      </trkpt>
      <trkpt lat="44.82151" lon="5.39222">
        <ele>769.1921387</ele>
        <time>2011-08-05T09:56:29Z</time>
      </trkpt>
      <trkpt lat="44.82163" lon="5.39258">
        <ele>768.2307129</ele>
        <time>2011-08-05T09:56:33Z</time>
      </trkpt>
      <trkpt lat="44.82177" lon="5.39323">
        <ele>767.2695313</ele>
        <time>2011-08-05T09:56:39Z</time>
      </trkpt>
      <trkpt lat="44.82186" lon="5.39359">
        <ele>764.8662109</ele>
        <time>2011-08-05T09:56:42Z</time>
      </trkpt>
      <trkpt lat="44.8221" lon="5.39409">
        <ele>763.904541</ele>
        <time>2011-08-05T09:56:46Z</time>
      </trkpt>
      <trkpt lat="44.82276" lon="5.39476">
        <ele>760.5400391</ele>
        <time>2011-08-05T09:56:53Z</time>
      </trkpt>
      <trkpt lat="44.82353" lon="5.39522">
        <ele>757.1755371</ele>
        <time>2011-08-05T09:57:00Z</time>
      </trkpt>
      <trkpt lat="44.82392" lon="5.3953">
        <ele>756.2141113</ele>
        <time>2011-08-05T09:57:04Z</time>
      </trkpt>
      <trkpt lat="44.82399" lon="5.39539">
        <ele>754.7722168</ele>
        <time>2011-08-05T09:57:07Z</time>
      </trkpt>
      <trkpt lat="44.82391" lon="5.3954">
        <ele>756.2141113</ele>
        <time>2011-08-05T09:57:09Z</time>
      </trkpt>
      <trkpt lat="44.82385" lon="5.39538">
        <ele>757.1755371</ele>
        <time>2011-08-05T09:57:10Z</time>
      </trkpt>
      <trkpt lat="44.82347" lon="5.39525">
        <ele>757.65625</ele>
        <time>2011-08-05T09:57:16Z</time>
      </trkpt>
      <trkpt lat="44.82299" lon="5.39511">
        <ele>754.291748</ele>
        <time>2011-08-05T09:57:22Z</time>
      </trkpt>
      <trkpt lat="44.82258" lon="5.395">
        <ele>751.8884277</ele>
        <time>2011-08-05T09:57:26Z</time>
      </trkpt>
      <trkpt lat="44.8222" lon="5.39495">
        <ele>749.4851074</ele>
        <time>2011-08-05T09:57:29Z</time>
      </trkpt>
      <trkpt lat="44.82168" lon="5.39513">
        <ele>746.6010742</ele>
        <time>2011-08-05T09:57:33Z</time>
      </trkpt>
      <trkpt lat="44.82106" lon="5.39552">
        <ele>741.7944336</ele>
        <time>2011-08-05T09:57:38Z</time>
      </trkpt>
      <trkpt lat="44.82066" lon="5.3956">
        <ele>738.4299316</ele>
        <time>2011-08-05T09:57:41Z</time>
      </trkpt>
      <trkpt lat="44.82028" lon="5.39541">
        <ele>735.5458984</ele>
        <time>2011-08-05T09:57:44Z</time>
      </trkpt>
      <trkpt lat="44.82014" lon="5.39513">
        <ele>734.1040039</ele>
        <time>2011-08-05T09:57:46Z</time>
      </trkpt>
      <trkpt lat="44.82021" lon="5.3948">
        <ele>732.6621094</ele>
        <time>2011-08-05T09:57:48Z</time>
      </trkpt>
      <trkpt lat="44.82039" lon="5.39457">
        <ele>731.7004395</ele>
        <time>2011-08-05T09:57:50Z</time>
      </trkpt>
      <trkpt lat="44.8205" lon="5.39448">
        <ele>731.2199707</ele>
        <time>2011-08-05T09:57:51Z</time>
      </trkpt>
      <trkpt lat="44.82083" lon="5.394">
        <ele>728.3359375</ele>
        <time>2011-08-05T09:57:55Z</time>
      </trkpt>
      <trkpt lat="44.82085" lon="5.39367">
        <ele>727.3747559</ele>
        <time>2011-08-05T09:57:57Z</time>
      </trkpt>
      <trkpt lat="44.82072" lon="5.39316">
        <ele>725.9326172</ele>
        <time>2011-08-05T09:58:00Z</time>
      </trkpt>
      <trkpt lat="44.82056" lon="5.39287">
        <ele>724.9714355</ele>
        <time>2011-08-05T09:58:02Z</time>
      </trkpt>
      <trkpt lat="44.82022" lon="5.39259">
        <ele>722.5681152</ele>
        <time>2011-08-05T09:58:05Z</time>
      </trkpt>
      <trkpt lat="44.82002" lon="5.39235">
        <ele>721.1262207</ele>
        <time>2011-08-05T09:58:07Z</time>
      </trkpt>
      <trkpt lat="44.81993" lon="5.39221">
        <ele>720.1647949</ele>
        <time>2011-08-05T09:58:08Z</time>
      </trkpt>
      <trkpt lat="44.81961" lon="5.39191">
        <ele>714.8774414</ele>
        <time>2011-08-05T09:58:12Z</time>
      </trkpt>
      <trkpt lat="44.81943" lon="5.39201">
        <ele>712.4741211</ele>
        <time>2011-08-05T09:58:14Z</time>
      </trkpt>
      <trkpt lat="44.81935" lon="5.39211">
        <ele>711.5129395</ele>
        <time>2011-08-05T09:58:15Z</time>
      </trkpt>
      <trkpt lat="44.81886" lon="5.3926">
        <ele>707.1870117</ele>
        <time>2011-08-05T09:58:20Z</time>
      </trkpt>
      <trkpt lat="44.81838" lon="5.39275">
        <ele>702.861084</ele>
        <time>2011-08-05T09:58:24Z</time>
      </trkpt>
      <trkpt lat="44.81825" lon="5.39274">
        <ele>701.8999023</ele>
        <time>2011-08-05T09:58:25Z</time>
      </trkpt>
      <trkpt lat="44.81738" lon="5.39259">
        <ele>695.651123</ele>
        <time>2011-08-05T09:58:32Z</time>
      </trkpt>
      <trkpt lat="44.81661" lon="5.39245">
        <ele>691.8059082</ele>
        <time>2011-08-05T09:58:38Z</time>
      </trkpt>
      <trkpt lat="44.81584" lon="5.39237">
        <ele>689.4025879</ele>
        <time>2011-08-05T09:58:44Z</time>
      </trkpt>
      <trkpt lat="44.8152" lon="5.39247">
        <ele>686.5187988</ele>
        <time>2011-08-05T09:58:49Z</time>
      </trkpt>
      <trkpt lat="44.81433" lon="5.39267">
        <ele>681.2314453</ele>
        <time>2011-08-05T09:58:56Z</time>
      </trkpt>
      <trkpt lat="44.81396" lon="5.39275">
        <ele>679.7893066</ele>
        <time>2011-08-05T09:58:59Z</time>
      </trkpt>
      <trkpt lat="44.81366" lon="5.39265">
        <ele>676.4248047</ele>
        <time>2011-08-05T09:59:02Z</time>
      </trkpt>
      <trkpt lat="44.81359" lon="5.39253">
        <ele>675.4633789</ele>
        <time>2011-08-05T09:59:03Z</time>
      </trkpt>
      <trkpt lat="44.8133" lon="5.39223">
        <ele>669.6958008</ele>
        <time>2011-08-05T09:59:07Z</time>
      </trkpt>
      <trkpt lat="44.81313" lon="5.39237">
        <ele>667.2922363</ele>
        <time>2011-08-05T09:59:09Z</time>
      </trkpt>
      <trkpt lat="44.81305" lon="5.39248">
        <ele>666.8115234</ele>
        <time>2011-08-05T09:59:10Z</time>
      </trkpt>
      <trkpt lat="44.81254" lon="5.39317">
        <ele>662.9663086</ele>
        <time>2011-08-05T09:59:16Z</time>
      </trkpt>
      <trkpt lat="44.81246" lon="5.3933">
        <ele>662.4855957</ele>
        <time>2011-08-05T09:59:17Z</time>
      </trkpt>
      <trkpt lat="44.81227" lon="5.3939">
        <ele>659.6018066</ele>
        <time>2011-08-05T09:59:21Z</time>
      </trkpt>
      <trkpt lat="44.81211" lon="5.39435">
        <ele>657.6791992</ele>
        <time>2011-08-05T09:59:24Z</time>
      </trkpt>
      <trkpt lat="44.81189" lon="5.3945">
        <ele>656.2370605</ele>
        <time>2011-08-05T09:59:26Z</time>
      </trkpt>
      <trkpt lat="44.81165" lon="5.39446">
        <ele>654.795166</ele>
        <time>2011-08-05T09:59:28Z</time>
      </trkpt>
      <trkpt lat="44.81141" lon="5.39435">
        <ele>653.8339844</ele>
        <time>2011-08-05T09:59:30Z</time>
      </trkpt>
      <trkpt lat="44.81064" lon="5.3939">
        <ele>649.0270996</ele>
        <time>2011-08-05T09:59:37Z</time>
      </trkpt>
      <trkpt lat="44.81017" lon="5.39384">
        <ele>645.6625977</ele>
        <time>2011-08-05T09:59:41Z</time>
      </trkpt>
      <trkpt lat="44.80958" lon="5.39381">
        <ele>640.3754883</ele>
        <time>2011-08-05T09:59:46Z</time>
      </trkpt>
      <trkpt lat="44.80911" lon="5.39368">
        <ele>636.5302734</ele>
        <time>2011-08-05T09:59:50Z</time>
      </trkpt>
      <trkpt lat="44.80864" lon="5.39355">
        <ele>632.2041016</ele>
        <time>2011-08-05T09:59:54Z</time>
      </trkpt>
      <trkpt lat="44.8084" lon="5.39355">
        <ele>630.762207</ele>
        <time>2011-08-05T09:59:56Z</time>
      </trkpt>
      <trkpt lat="44.80805" lon="5.39345">
        <ele>628.3588867</ele>
        <time>2011-08-05T09:59:59Z</time>
      </trkpt>
      <trkpt lat="44.80773" lon="5.39322">
        <ele>625.4748535</ele>
        <time>2011-08-05T10:00:02Z</time>
      </trkpt>
      <trkpt lat="44.80728" lon="5.39307">
        <ele>621.6296387</ele>
        <time>2011-08-05T10:00:06Z</time>
      </trkpt>
      <trkpt lat="44.80684" lon="5.3929">
        <ele>616.822998</ele>
        <time>2011-08-05T10:00:10Z</time>
      </trkpt>
      <trkpt lat="44.80671" lon="5.39265">
        <ele>613.9389648</ele>
        <time>2011-08-05T10:00:12Z</time>
      </trkpt>
      <trkpt lat="44.80656" lon="5.39222">
        <ele>610.09375</ele>
        <time>2011-08-05T10:00:15Z</time>
      </trkpt>
      <trkpt lat="44.80646" lon="5.39175">
        <ele>606.2485352</ele>
        <time>2011-08-05T10:00:18Z</time>
      </trkpt>
      <trkpt lat="44.80642" lon="5.39111">
        <ele>603.364502</ele>
        <time>2011-08-05T10:00:22Z</time>
      </trkpt>
      <trkpt lat="44.80647" lon="5.39096">
        <ele>602.8837891</ele>
        <time>2011-08-05T10:00:23Z</time>
      </trkpt>
      <trkpt lat="44.80652" lon="5.39047">
        <ele>601.4418945</ele>
        <time>2011-08-05T10:00:27Z</time>
      </trkpt>
      <trkpt lat="44.8064" lon="5.39036">
        <ele>600.4807129</ele>
        <time>2011-08-05T10:00:29Z</time>
      </trkpt>
      <trkpt lat="44.80624" lon="5.3904">
        <ele>599.0385742</ele>
        <time>2011-08-05T10:00:31Z</time>
      </trkpt>
      <trkpt lat="44.80577" lon="5.39067">
        <ele>597.1159668</ele>
        <time>2011-08-05T10:00:36Z</time>
      </trkpt>
      <trkpt lat="44.80533" lon="5.39097">
        <ele>595.1933594</ele>
        <time>2011-08-05T10:00:40Z</time>
      </trkpt>
      <trkpt lat="44.80508" lon="5.3911">
        <ele>594.7126465</ele>
        <time>2011-08-05T10:00:42Z</time>
      </trkpt>
      <trkpt lat="44.80443" lon="5.39116">
        <ele>591.8288574</ele>
        <time>2011-08-05T10:00:47Z</time>
      </trkpt>
      <trkpt lat="44.80418" lon="5.39115">
        <ele>589.90625</ele>
        <time>2011-08-05T10:00:49Z</time>
      </trkpt>
      <trkpt lat="44.80383" lon="5.39101">
        <ele>587.9833984</ele>
        <time>2011-08-05T10:00:52Z</time>
      </trkpt>
      <trkpt lat="44.80365" lon="5.3908">
        <ele>584.6188965</ele>
        <time>2011-08-05T10:00:54Z</time>
      </trkpt>
      <trkpt lat="44.80332" lon="5.39027">
        <ele>580.2929688</ele>
        <time>2011-08-05T10:00:58Z</time>
      </trkpt>
      <trkpt lat="44.80319" lon="5.38996">
        <ele>577.4091797</ele>
        <time>2011-08-05T10:01:00Z</time>
      </trkpt>
      <trkpt lat="44.80283" lon="5.38944">
        <ele>574.0444336</ele>
        <time>2011-08-05T10:01:04Z</time>
      </trkpt>
      <trkpt lat="44.80268" lon="5.38915">
        <ele>572.6025391</ele>
        <time>2011-08-05T10:01:06Z</time>
      </trkpt>
      <trkpt lat="44.80233" lon="5.38841">
        <ele>568.7570801</ele>
        <time>2011-08-05T10:01:11Z</time>
      </trkpt>
      <trkpt lat="44.80216" lon="5.38777">
        <ele>565.873291</ele>
        <time>2011-08-05T10:01:15Z</time>
      </trkpt>
      <trkpt lat="44.80221" lon="5.38743">
        <ele>564.9118652</ele>
        <time>2011-08-05T10:01:17Z</time>
      </trkpt>
      <trkpt lat="44.8023" lon="5.38702">
        <ele>562.9892578</ele>
        <time>2011-08-05T10:01:20Z</time>
      </trkpt>
      <trkpt lat="44.80223" lon="5.38685">
        <ele>562.0280762</ele>
        <time>2011-08-05T10:01:22Z</time>
      </trkpt>
      <trkpt lat="44.80208" lon="5.38681">
        <ele>561.0666504</ele>
        <time>2011-08-05T10:01:24Z</time>
      </trkpt>
      <trkpt lat="44.80199" lon="5.38682">
        <ele>560.5859375</ele>
        <time>2011-08-05T10:01:25Z</time>
      </trkpt>
      <trkpt lat="44.8018" lon="5.38686">
        <ele>559.6247559</ele>
        <time>2011-08-05T10:01:27Z</time>
      </trkpt>
      <trkpt lat="44.80138" lon="5.38679">
        <ele>557.7021484</ele>
        <time>2011-08-05T10:01:31Z</time>
      </trkpt>
      <trkpt lat="44.80117" lon="5.38667">
        <ele>556.2600098</ele>
        <time>2011-08-05T10:01:33Z</time>
      </trkpt>
      <trkpt lat="44.80048" lon="5.38606">
        <ele>551.934082</ele>
        <time>2011-08-05T10:01:40Z</time>
      </trkpt>
      <trkpt lat="44.79995" lon="5.38546">
        <ele>547.6081543</ele>
        <time>2011-08-05T10:01:46Z</time>
      </trkpt>
      <trkpt lat="44.79933" lon="5.38477">
        <ele>542.8015137</ele>
        <time>2011-08-05T10:01:53Z</time>
      </trkpt>
      <trkpt lat="44.79916" lon="5.3844">
        <ele>541.84021</ele>
        <time>2011-08-05T10:01:57Z</time>
      </trkpt>
      <trkpt lat="44.79913" lon="5.38431">
        <ele>541.84021</ele>
        <time>2011-08-05T10:01:58Z</time>
      </trkpt>
      <trkpt lat="44.79896" lon="5.38405">
        <ele>540.3983154</ele>
        <time>2011-08-05T10:02:02Z</time>
      </trkpt>
      <trkpt lat="44.79849" lon="5.38357">
        <ele>542.3209229</ele>
        <time>2011-08-05T10:02:10Z</time>
      </trkpt>
      <trkpt lat="44.79803" lon="5.38332">
        <ele>540.8789063</ele>
        <time>2011-08-05T10:02:16Z</time>
      </trkpt>
      <trkpt lat="44.79756" lon="5.38318">
        <ele>536.0723877</ele>
        <time>2011-08-05T10:02:21Z</time>
      </trkpt>
      <trkpt lat="44.79704" lon="5.38305">
        <ele>532.2270508</ele>
        <time>2011-08-05T10:02:26Z</time>
      </trkpt>
      <trkpt lat="44.79673" lon="5.38298">
        <ele>529.8237305</ele>
        <time>2011-08-05T10:02:30Z</time>
      </trkpt>
      <trkpt lat="44.79659" lon="5.38296">
        <ele>529.3431396</ele>
        <time>2011-08-05T10:02:32Z</time>
      </trkpt>
      <trkpt lat="44.79647" lon="5.38284">
        <ele>527.901001</ele>
        <time>2011-08-05T10:02:35Z</time>
      </trkpt>
      <trkpt lat="44.79646" lon="5.38278">
        <ele>527.901001</ele>
        <time>2011-08-05T10:02:36Z</time>
      </trkpt>
      <trkpt lat="44.79639" lon="5.38258">
        <ele>527.901001</ele>
        <time>2011-08-05T10:02:40Z</time>
      </trkpt>
      <trkpt lat="44.79634" lon="5.38246">
        <ele>527.901001</ele>
        <time>2011-08-05T10:02:43Z</time>
      </trkpt>
      <trkpt lat="44.79629" lon="5.38223">
        <ele>529.3431396</ele>
        <time>2011-08-05T10:02:49Z</time>
      </trkpt>
      <trkpt lat="44.79625" lon="5.38199">
        <ele>532.2270508</ele>
        <time>2011-08-05T10:02:56Z</time>
      </trkpt>
      <trkpt lat="44.7963" lon="5.38192">
        <ele>532.7077637</ele>
        <time>2011-08-05T10:03:00Z</time>
      </trkpt>
      <trkpt lat="44.79631" lon="5.38193">
        <ele>532.7077637</ele>
        <time>2011-08-05T10:03:01Z</time>
      </trkpt>
      <trkpt lat="44.79634" lon="5.38197">
        <ele>533.1883545</ele>
        <time>2011-08-05T10:03:04Z</time>
      </trkpt>
    </trkseg>
  </trk>
</gpx>